<?xml version="1.0" encoding="UTF-8" standalone="no" ?>
<gpx xmlns="http://www.topografix.com/GPX/1/1" xmlns:xsi="http://www.w3.org/2001/XMLSchema-instance" xsi:schemaLocation="http://www.topografix.com/GPX/1/1 http://www.topografix.com/GPX/1/1/gpx.xsd" version="1.1" creator="VisuGPX - https://www.visugpx.com">
  <metadata>
    <name>Autour d\'obersteigen</name>
    <desc><![CDATA[Belle randonnée de VTT avec une délicieuse descente.]]></desc>
  </metadata>
  <trk>
    <name><![CDATA[09-JUIN-12 03:28:03 PM]]></name>
    <trkseg>
      <trkpt lat="48.64219" lon="7.30588">
        <ele>469.26</ele>
        <time>2012-06-09T10:18:14Z</time>
      </trkpt>
      <trkpt lat="48.64219" lon="7.30586">
        <ele>468.78</ele>
        <time>2012-06-09T10:18:36Z</time>
      </trkpt>
      <trkpt lat="48.64219" lon="7.30586">
        <ele>468.78</ele>
        <time>2012-06-09T10:19:01Z</time>
      </trkpt>
      <trkpt lat="48.64218" lon="7.30586">
        <ele>467.82</ele>
        <time>2012-06-09T10:19:18Z</time>
      </trkpt>
      <trkpt lat="48.64218" lon="7.30585">
        <ele>466.86</ele>
        <time>2012-06-09T10:19:27Z</time>
      </trkpt>
      <trkpt lat="48.64204" lon="7.30574">
        <ele>466.38</ele>
        <time>2012-06-09T10:19:36Z</time>
      </trkpt>
      <trkpt lat="48.64174" lon="7.30571">
        <ele>465.9</ele>
        <time>2012-06-09T10:19:50Z</time>
      </trkpt>
      <trkpt lat="48.64167" lon="7.30568">
        <ele>464.93</ele>
        <time>2012-06-09T10:19:54Z</time>
      </trkpt>
      <trkpt lat="48.64167" lon="7.30561">
        <ele>464.93</ele>
        <time>2012-06-09T10:19:58Z</time>
      </trkpt>
      <trkpt lat="48.64179" lon="7.3052">
        <ele>467.34</ele>
        <time>2012-06-09T10:20:12Z</time>
      </trkpt>
      <trkpt lat="48.64191" lon="7.3047">
        <ele>467.82</ele>
        <time>2012-06-09T10:20:24Z</time>
      </trkpt>
      <trkpt lat="48.64198" lon="7.30417">
        <ele>470.22</ele>
        <time>2012-06-09T10:20:34Z</time>
      </trkpt>
      <trkpt lat="48.64206" lon="7.30408">
        <ele>469.26</ele>
        <time>2012-06-09T10:20:39Z</time>
      </trkpt>
      <trkpt lat="48.64206" lon="7.30409">
        <ele>466.38</ele>
        <time>2012-06-09T10:20:42Z</time>
      </trkpt>
      <trkpt lat="48.64222" lon="7.30408">
        <ele>463.49</ele>
        <time>2012-06-09T10:20:56Z</time>
      </trkpt>
      <trkpt lat="48.64229" lon="7.30405">
        <ele>464.93</ele>
        <time>2012-06-09T10:21:00Z</time>
      </trkpt>
      <trkpt lat="48.64244" lon="7.304">
        <ele>466.86</ele>
        <time>2012-06-09T10:21:07Z</time>
      </trkpt>
      <trkpt lat="48.64275" lon="7.30402">
        <ele>467.34</ele>
        <time>2012-06-09T10:21:25Z</time>
      </trkpt>
      <trkpt lat="48.64303" lon="7.30402">
        <ele>467.82</ele>
        <time>2012-06-09T10:21:39Z</time>
      </trkpt>
      <trkpt lat="48.6434" lon="7.30405">
        <ele>468.78</ele>
        <time>2012-06-09T10:21:55Z</time>
      </trkpt>
      <trkpt lat="48.64386" lon="7.30403">
        <ele>470.22</ele>
        <time>2012-06-09T10:22:09Z</time>
      </trkpt>
      <trkpt lat="48.64429" lon="7.3039">
        <ele>472.14</ele>
        <time>2012-06-09T10:22:24Z</time>
      </trkpt>
      <trkpt lat="48.64471" lon="7.30378">
        <ele>471.66</ele>
        <time>2012-06-09T10:22:37Z</time>
      </trkpt>
      <trkpt lat="48.64513" lon="7.30373">
        <ele>474.07</ele>
        <time>2012-06-09T10:22:50Z</time>
      </trkpt>
      <trkpt lat="48.64555" lon="7.30356">
        <ele>476.95</ele>
        <time>2012-06-09T10:23:02Z</time>
      </trkpt>
      <trkpt lat="48.646" lon="7.30352">
        <ele>480.32</ele>
        <time>2012-06-09T10:23:15Z</time>
      </trkpt>
      <trkpt lat="48.64603" lon="7.30351">
        <ele>480.8</ele>
        <time>2012-06-09T10:23:16Z</time>
      </trkpt>
      <trkpt lat="48.64632" lon="7.30317">
        <ele>486.08</ele>
        <time>2012-06-09T10:23:29Z</time>
      </trkpt>
      <trkpt lat="48.64652" lon="7.30286">
        <ele>493.29</ele>
        <time>2012-06-09T10:23:43Z</time>
      </trkpt>
      <trkpt lat="48.64674" lon="7.30249">
        <ele>501.46</ele>
        <time>2012-06-09T10:23:56Z</time>
      </trkpt>
      <trkpt lat="48.64691" lon="7.30249">
        <ele>509.16</ele>
        <time>2012-06-09T10:24:10Z</time>
      </trkpt>
      <trkpt lat="48.64718" lon="7.30258">
        <ele>519.73</ele>
        <time>2012-06-09T10:24:26Z</time>
      </trkpt>
      <trkpt lat="48.64748" lon="7.30238">
        <ele>525.5</ele>
        <time>2012-06-09T10:24:41Z</time>
      </trkpt>
      <trkpt lat="48.6477" lon="7.30221">
        <ele>527.9</ele>
        <time>2012-06-09T10:24:51Z</time>
      </trkpt>
      <trkpt lat="48.64778" lon="7.30217">
        <ele>530.3</ele>
        <time>2012-06-09T10:24:55Z</time>
      </trkpt>
      <trkpt lat="48.64795" lon="7.302">
        <ele>532.71</ele>
        <time>2012-06-09T10:25:09Z</time>
      </trkpt>
      <trkpt lat="48.64796" lon="7.30194">
        <ele>539.92</ele>
        <time>2012-06-09T10:25:31Z</time>
      </trkpt>
      <trkpt lat="48.64809" lon="7.30183">
        <ele>537.03</ele>
        <time>2012-06-09T10:26:01Z</time>
      </trkpt>
      <trkpt lat="48.64811" lon="7.30185">
        <ele>537.51</ele>
        <time>2012-06-09T10:26:25Z</time>
      </trkpt>
      <trkpt lat="48.64816" lon="7.30183">
        <ele>533.67</ele>
        <time>2012-06-09T10:26:38Z</time>
      </trkpt>
      <trkpt lat="48.64846" lon="7.30168">
        <ele>533.19</ele>
        <time>2012-06-09T10:26:54Z</time>
      </trkpt>
      <trkpt lat="48.6486" lon="7.30164">
        <ele>533.19</ele>
        <time>2012-06-09T10:27:02Z</time>
      </trkpt>
      <trkpt lat="48.64865" lon="7.30156">
        <ele>533.67</ele>
        <time>2012-06-09T10:27:06Z</time>
      </trkpt>
      <trkpt lat="48.64893" lon="7.30106">
        <ele>536.07</ele>
        <time>2012-06-09T10:27:24Z</time>
      </trkpt>
      <trkpt lat="48.64916" lon="7.30059">
        <ele>537.03</ele>
        <time>2012-06-09T10:27:39Z</time>
      </trkpt>
      <trkpt lat="48.64935" lon="7.30006">
        <ele>536.55</ele>
        <time>2012-06-09T10:27:55Z</time>
      </trkpt>
      <trkpt lat="48.64936" lon="7.30002">
        <ele>536.55</ele>
        <time>2012-06-09T10:27:57Z</time>
      </trkpt>
      <trkpt lat="48.64945" lon="7.29959">
        <ele>541.84</ele>
        <time>2012-06-09T10:28:12Z</time>
      </trkpt>
      <trkpt lat="48.64976" lon="7.29907">
        <ele>543.28</ele>
        <time>2012-06-09T10:28:25Z</time>
      </trkpt>
      <trkpt lat="48.64993" lon="7.29908">
        <ele>532.71</ele>
        <time>2012-06-09T10:28:37Z</time>
      </trkpt>
      <trkpt lat="48.65017" lon="7.29943">
        <ele>531.75</ele>
        <time>2012-06-09T10:28:52Z</time>
      </trkpt>
      <trkpt lat="48.65039" lon="7.29988">
        <ele>530.3</ele>
        <time>2012-06-09T10:29:08Z</time>
      </trkpt>
      <trkpt lat="48.65058" lon="7.30037">
        <ele>524.06</ele>
        <time>2012-06-09T10:29:22Z</time>
      </trkpt>
      <trkpt lat="48.65065" lon="7.30059">
        <ele>520.69</ele>
        <time>2012-06-09T10:29:27Z</time>
      </trkpt>
      <trkpt lat="48.65077" lon="7.30099">
        <ele>517.81</ele>
        <time>2012-06-09T10:29:38Z</time>
      </trkpt>
      <trkpt lat="48.65095" lon="7.30147">
        <ele>518.29</ele>
        <time>2012-06-09T10:29:52Z</time>
      </trkpt>
      <trkpt lat="48.65118" lon="7.30195">
        <ele>523.09</ele>
        <time>2012-06-09T10:30:07Z</time>
      </trkpt>
      <trkpt lat="48.65149" lon="7.30241">
        <ele>523.58</ele>
        <time>2012-06-09T10:30:22Z</time>
      </trkpt>
      <trkpt lat="48.65187" lon="7.3024">
        <ele>526.94</ele>
        <time>2012-06-09T10:30:34Z</time>
      </trkpt>
      <trkpt lat="48.65223" lon="7.30228">
        <ele>529.82</ele>
        <time>2012-06-09T10:30:47Z</time>
      </trkpt>
      <trkpt lat="48.65247" lon="7.3022">
        <ele>533.19</ele>
        <time>2012-06-09T10:30:59Z</time>
      </trkpt>
      <trkpt lat="48.65279" lon="7.30208">
        <ele>538.48</ele>
        <time>2012-06-09T10:31:14Z</time>
      </trkpt>
      <trkpt lat="48.65308" lon="7.30208">
        <ele>542.32</ele>
        <time>2012-06-09T10:31:27Z</time>
      </trkpt>
      <trkpt lat="48.65327" lon="7.30218">
        <ele>543.76</ele>
        <time>2012-06-09T10:31:36Z</time>
      </trkpt>
      <trkpt lat="48.65342" lon="7.30253">
        <ele>544.24</ele>
        <time>2012-06-09T10:31:51Z</time>
      </trkpt>
      <trkpt lat="48.65362" lon="7.30294">
        <ele>546.17</ele>
        <time>2012-06-09T10:32:05Z</time>
      </trkpt>
      <trkpt lat="48.65384" lon="7.30332">
        <ele>542.8</ele>
        <time>2012-06-09T10:32:18Z</time>
      </trkpt>
      <trkpt lat="48.65417" lon="7.30389">
        <ele>541.84</ele>
        <time>2012-06-09T10:32:34Z</time>
      </trkpt>
      <trkpt lat="48.65437" lon="7.30444">
        <ele>537.51</ele>
        <time>2012-06-09T10:32:48Z</time>
      </trkpt>
      <trkpt lat="48.65455" lon="7.30479">
        <ele>535.59</ele>
        <time>2012-06-09T10:33:00Z</time>
      </trkpt>
      <trkpt lat="48.6548" lon="7.30529">
        <ele>533.67</ele>
        <time>2012-06-09T10:33:14Z</time>
      </trkpt>
      <trkpt lat="48.6551" lon="7.30569">
        <ele>534.15</ele>
        <time>2012-06-09T10:33:27Z</time>
      </trkpt>
      <trkpt lat="48.65558" lon="7.30582">
        <ele>537.03</ele>
        <time>2012-06-09T10:33:42Z</time>
      </trkpt>
      <trkpt lat="48.65588" lon="7.30576">
        <ele>542.32</ele>
        <time>2012-06-09T10:33:54Z</time>
      </trkpt>
      <trkpt lat="48.65601" lon="7.30571">
        <ele>545.2</ele>
        <time>2012-06-09T10:34:04Z</time>
      </trkpt>
      <trkpt lat="48.65619" lon="7.30554">
        <ele>556.26</ele>
        <time>2012-06-09T10:34:17Z</time>
      </trkpt>
      <trkpt lat="48.65643" lon="7.30538">
        <ele>563.47</ele>
        <time>2012-06-09T10:34:34Z</time>
      </trkpt>
      <trkpt lat="48.65664" lon="7.30527">
        <ele>566.83</ele>
        <time>2012-06-09T10:34:45Z</time>
      </trkpt>
      <trkpt lat="48.65687" lon="7.30518">
        <ele>570.68</ele>
        <time>2012-06-09T10:35:00Z</time>
      </trkpt>
      <trkpt lat="48.65702" lon="7.30519">
        <ele>574.04</ele>
        <time>2012-06-09T10:35:13Z</time>
      </trkpt>
      <trkpt lat="48.65716" lon="7.30524">
        <ele>573.56</ele>
        <time>2012-06-09T10:35:24Z</time>
      </trkpt>
      <trkpt lat="48.65741" lon="7.30529">
        <ele>569.24</ele>
        <time>2012-06-09T10:35:36Z</time>
      </trkpt>
      <trkpt lat="48.65778" lon="7.30567">
        <ele>562.51</ele>
        <time>2012-06-09T10:35:49Z</time>
      </trkpt>
      <trkpt lat="48.65817" lon="7.30632">
        <ele>557.22</ele>
        <time>2012-06-09T10:36:05Z</time>
      </trkpt>
      <trkpt lat="48.65854" lon="7.30676">
        <ele>555.78</ele>
        <time>2012-06-09T10:36:18Z</time>
      </trkpt>
      <trkpt lat="48.65895" lon="7.30713">
        <ele>555.3</ele>
        <time>2012-06-09T10:36:30Z</time>
      </trkpt>
      <trkpt lat="48.65939" lon="7.30739">
        <ele>556.26</ele>
        <time>2012-06-09T10:36:44Z</time>
      </trkpt>
      <trkpt lat="48.6598" lon="7.30772">
        <ele>555.78</ele>
        <time>2012-06-09T10:37:00Z</time>
      </trkpt>
      <trkpt lat="48.66023" lon="7.3078">
        <ele>553.86</ele>
        <time>2012-06-09T10:37:13Z</time>
      </trkpt>
      <trkpt lat="48.66046" lon="7.30769">
        <ele>553.38</ele>
        <time>2012-06-09T10:37:19Z</time>
      </trkpt>
      <trkpt lat="48.66077" lon="7.3075">
        <ele>553.38</ele>
        <time>2012-06-09T10:37:25Z</time>
      </trkpt>
      <trkpt lat="48.66105" lon="7.30742">
        <ele>552.9</ele>
        <time>2012-06-09T10:37:30Z</time>
      </trkpt>
      <trkpt lat="48.66126" lon="7.30742">
        <ele>552.9</ele>
        <time>2012-06-09T10:37:34Z</time>
      </trkpt>
      <trkpt lat="48.6618" lon="7.30758">
        <ele>552.9</ele>
        <time>2012-06-09T10:37:43Z</time>
      </trkpt>
      <trkpt lat="48.66201" lon="7.30787">
        <ele>552.41</ele>
        <time>2012-06-09T10:37:47Z</time>
      </trkpt>
      <trkpt lat="48.66248" lon="7.3092">
        <ele>549.53</ele>
        <time>2012-06-09T10:38:00Z</time>
      </trkpt>
      <trkpt lat="48.66295" lon="7.31032">
        <ele>546.17</ele>
        <time>2012-06-09T10:38:11Z</time>
      </trkpt>
      <trkpt lat="48.66329" lon="7.31089">
        <ele>544.24</ele>
        <time>2012-06-09T10:38:18Z</time>
      </trkpt>
      <trkpt lat="48.66344" lon="7.31107">
        <ele>543.28</ele>
        <time>2012-06-09T10:38:21Z</time>
      </trkpt>
      <trkpt lat="48.6637" lon="7.31121">
        <ele>541.36</ele>
        <time>2012-06-09T10:38:31Z</time>
      </trkpt>
      <trkpt lat="48.6637" lon="7.31121">
        <ele>541.36</ele>
        <time>2012-06-09T10:39:00Z</time>
      </trkpt>
      <trkpt lat="48.66372" lon="7.31121">
        <ele>540.4</ele>
        <time>2012-06-09T10:39:16Z</time>
      </trkpt>
      <trkpt lat="48.66409" lon="7.31102">
        <ele>535.59</ele>
        <time>2012-06-09T10:39:28Z</time>
      </trkpt>
      <trkpt lat="48.6646" lon="7.31076">
        <ele>530.79</ele>
        <time>2012-06-09T10:39:41Z</time>
      </trkpt>
      <trkpt lat="48.66473" lon="7.31071">
        <ele>530.3</ele>
        <time>2012-06-09T10:39:44Z</time>
      </trkpt>
      <trkpt lat="48.66482" lon="7.31069">
        <ele>529.34</ele>
        <time>2012-06-09T10:39:46Z</time>
      </trkpt>
      <trkpt lat="48.66502" lon="7.3107">
        <ele>528.38</ele>
        <time>2012-06-09T10:39:50Z</time>
      </trkpt>
      <trkpt lat="48.66583" lon="7.31093">
        <ele>524.06</ele>
        <time>2012-06-09T10:40:03Z</time>
      </trkpt>
      <trkpt lat="48.66647" lon="7.31118">
        <ele>522.13</ele>
        <time>2012-06-09T10:40:12Z</time>
      </trkpt>
      <trkpt lat="48.66666" lon="7.31123">
        <ele>521.17</ele>
        <time>2012-06-09T10:40:15Z</time>
      </trkpt>
      <trkpt lat="48.66695" lon="7.31131">
        <ele>519.25</ele>
        <time>2012-06-09T10:40:19Z</time>
      </trkpt>
      <trkpt lat="48.66707" lon="7.31134">
        <ele>518.77</ele>
        <time>2012-06-09T10:40:21Z</time>
      </trkpt>
      <trkpt lat="48.66768" lon="7.3114">
        <ele>513.48</ele>
        <time>2012-06-09T10:40:31Z</time>
      </trkpt>
      <trkpt lat="48.66774" lon="7.3114">
        <ele>512.04</ele>
        <time>2012-06-09T10:40:40Z</time>
      </trkpt>
      <trkpt lat="48.66777" lon="7.3114">
        <ele>510.12</ele>
        <time>2012-06-09T10:40:55Z</time>
      </trkpt>
      <trkpt lat="48.66787" lon="7.3114">
        <ele>510.6</ele>
        <time>2012-06-09T10:41:08Z</time>
      </trkpt>
      <trkpt lat="48.66796" lon="7.31144">
        <ele>510.12</ele>
        <time>2012-06-09T10:41:22Z</time>
      </trkpt>
      <trkpt lat="48.66804" lon="7.31149">
        <ele>507.23</ele>
        <time>2012-06-09T10:41:34Z</time>
      </trkpt>
      <trkpt lat="48.66835" lon="7.31155">
        <ele>502.43</ele>
        <time>2012-06-09T10:41:43Z</time>
      </trkpt>
      <trkpt lat="48.6686" lon="7.31156">
        <ele>499.54</ele>
        <time>2012-06-09T10:41:48Z</time>
      </trkpt>
      <trkpt lat="48.66876" lon="7.31153">
        <ele>497.14</ele>
        <time>2012-06-09T10:41:56Z</time>
      </trkpt>
      <trkpt lat="48.66876" lon="7.31153">
        <ele>497.14</ele>
        <time>2012-06-09T10:42:20Z</time>
      </trkpt>
      <trkpt lat="48.66877" lon="7.31153">
        <ele>497.14</ele>
        <time>2012-06-09T10:42:54Z</time>
      </trkpt>
      <trkpt lat="48.66896" lon="7.31143">
        <ele>496.66</ele>
        <time>2012-06-09T10:43:02Z</time>
      </trkpt>
      <trkpt lat="48.66913" lon="7.31114">
        <ele>496.18</ele>
        <time>2012-06-09T10:43:07Z</time>
      </trkpt>
      <trkpt lat="48.66949" lon="7.31012">
        <ele>495.22</ele>
        <time>2012-06-09T10:43:19Z</time>
      </trkpt>
      <trkpt lat="48.66951" lon="7.31003">
        <ele>495.22</ele>
        <time>2012-06-09T10:43:20Z</time>
      </trkpt>
      <trkpt lat="48.66954" lon="7.30984">
        <ele>495.22</ele>
        <time>2012-06-09T10:43:22Z</time>
      </trkpt>
      <trkpt lat="48.66955" lon="7.30936">
        <ele>494.74</ele>
        <time>2012-06-09T10:43:26Z</time>
      </trkpt>
      <trkpt lat="48.66951" lon="7.30887">
        <ele>493.77</ele>
        <time>2012-06-09T10:43:30Z</time>
      </trkpt>
      <trkpt lat="48.66938" lon="7.30816">
        <ele>493.77</ele>
        <time>2012-06-09T10:43:36Z</time>
      </trkpt>
      <trkpt lat="48.66926" lon="7.30783">
        <ele>493.29</ele>
        <time>2012-06-09T10:43:40Z</time>
      </trkpt>
      <trkpt lat="48.66908" lon="7.30754">
        <ele>492.33</ele>
        <time>2012-06-09T10:43:51Z</time>
      </trkpt>
      <trkpt lat="48.66891" lon="7.30726">
        <ele>491.85</ele>
        <time>2012-06-09T10:44:04Z</time>
      </trkpt>
      <trkpt lat="48.66872" lon="7.30696">
        <ele>491.85</ele>
        <time>2012-06-09T10:44:17Z</time>
      </trkpt>
      <trkpt lat="48.66851" lon="7.30669">
        <ele>492.81</ele>
        <time>2012-06-09T10:44:30Z</time>
      </trkpt>
      <trkpt lat="48.66827" lon="7.30638">
        <ele>493.29</ele>
        <time>2012-06-09T10:44:43Z</time>
      </trkpt>
      <trkpt lat="48.66802" lon="7.30611">
        <ele>494.26</ele>
        <time>2012-06-09T10:44:55Z</time>
      </trkpt>
      <trkpt lat="48.66791" lon="7.306">
        <ele>494.74</ele>
        <time>2012-06-09T10:45:00Z</time>
      </trkpt>
      <trkpt lat="48.66769" lon="7.30566">
        <ele>496.66</ele>
        <time>2012-06-09T10:45:13Z</time>
      </trkpt>
      <trkpt lat="48.66767" lon="7.30562">
        <ele>496.66</ele>
        <time>2012-06-09T10:45:15Z</time>
      </trkpt>
      <trkpt lat="48.66746" lon="7.30537">
        <ele>499.54</ele>
        <time>2012-06-09T10:45:29Z</time>
      </trkpt>
      <trkpt lat="48.66727" lon="7.30505">
        <ele>500.5</ele>
        <time>2012-06-09T10:45:43Z</time>
      </trkpt>
      <trkpt lat="48.66708" lon="7.30479">
        <ele>502.91</ele>
        <time>2012-06-09T10:45:57Z</time>
      </trkpt>
      <trkpt lat="48.6669" lon="7.30461">
        <ele>505.79</ele>
        <time>2012-06-09T10:46:10Z</time>
      </trkpt>
      <trkpt lat="48.6666" lon="7.30445">
        <ele>507.71</ele>
        <time>2012-06-09T10:46:25Z</time>
      </trkpt>
      <trkpt lat="48.66632" lon="7.30434">
        <ele>509.16</ele>
        <time>2012-06-09T10:46:37Z</time>
      </trkpt>
      <trkpt lat="48.66605" lon="7.30424">
        <ele>511.56</ele>
        <time>2012-06-09T10:46:49Z</time>
      </trkpt>
      <trkpt lat="48.66577" lon="7.30412">
        <ele>513.96</ele>
        <time>2012-06-09T10:47:03Z</time>
      </trkpt>
      <trkpt lat="48.66545" lon="7.30399">
        <ele>516.85</ele>
        <time>2012-06-09T10:47:19Z</time>
      </trkpt>
      <trkpt lat="48.66538" lon="7.30395">
        <ele>517.81</ele>
        <time>2012-06-09T10:47:23Z</time>
      </trkpt>
      <trkpt lat="48.6653" lon="7.30394">
        <ele>517.81</ele>
        <time>2012-06-09T10:47:28Z</time>
      </trkpt>
      <trkpt lat="48.66506" lon="7.30384">
        <ele>519.73</ele>
        <time>2012-06-09T10:47:41Z</time>
      </trkpt>
      <trkpt lat="48.66476" lon="7.30366">
        <ele>522.61</ele>
        <time>2012-06-09T10:47:54Z</time>
      </trkpt>
      <trkpt lat="48.66454" lon="7.30353">
        <ele>524.54</ele>
        <time>2012-06-09T10:48:06Z</time>
      </trkpt>
      <trkpt lat="48.6643" lon="7.30338">
        <ele>525.02</ele>
        <time>2012-06-09T10:48:18Z</time>
      </trkpt>
      <trkpt lat="48.66402" lon="7.30326">
        <ele>525.02</ele>
        <time>2012-06-09T10:48:32Z</time>
      </trkpt>
      <trkpt lat="48.66377" lon="7.30317">
        <ele>525.02</ele>
        <time>2012-06-09T10:48:44Z</time>
      </trkpt>
      <trkpt lat="48.66351" lon="7.30307">
        <ele>526.46</ele>
        <time>2012-06-09T10:48:56Z</time>
      </trkpt>
      <trkpt lat="48.66329" lon="7.30297">
        <ele>529.82</ele>
        <time>2012-06-09T10:49:08Z</time>
      </trkpt>
      <trkpt lat="48.66307" lon="7.30291">
        <ele>531.75</ele>
        <time>2012-06-09T10:49:20Z</time>
      </trkpt>
      <trkpt lat="48.66281" lon="7.30282">
        <ele>535.11</ele>
        <time>2012-06-09T10:49:34Z</time>
      </trkpt>
      <trkpt lat="48.6626" lon="7.30271">
        <ele>535.59</ele>
        <time>2012-06-09T10:49:47Z</time>
      </trkpt>
      <trkpt lat="48.66238" lon="7.30257">
        <ele>535.59</ele>
        <time>2012-06-09T10:50:01Z</time>
      </trkpt>
      <trkpt lat="48.66213" lon="7.30239">
        <ele>536.55</ele>
        <time>2012-06-09T10:50:17Z</time>
      </trkpt>
      <trkpt lat="48.66196" lon="7.30222">
        <ele>538.96</ele>
        <time>2012-06-09T10:50:31Z</time>
      </trkpt>
      <trkpt lat="48.66176" lon="7.30206">
        <ele>541.36</ele>
        <time>2012-06-09T10:50:47Z</time>
      </trkpt>
      <trkpt lat="48.66161" lon="7.30193">
        <ele>541.84</ele>
        <time>2012-06-09T10:50:59Z</time>
      </trkpt>
      <trkpt lat="48.66155" lon="7.30189">
        <ele>542.32</ele>
        <time>2012-06-09T10:51:03Z</time>
      </trkpt>
      <trkpt lat="48.66143" lon="7.30178">
        <ele>542.32</ele>
        <time>2012-06-09T10:51:13Z</time>
      </trkpt>
      <trkpt lat="48.66124" lon="7.30159">
        <ele>544.24</ele>
        <time>2012-06-09T10:51:28Z</time>
      </trkpt>
      <trkpt lat="48.66121" lon="7.30153">
        <ele>545.69</ele>
        <time>2012-06-09T10:51:32Z</time>
      </trkpt>
      <trkpt lat="48.66102" lon="7.3013">
        <ele>547.13</ele>
        <time>2012-06-09T10:51:47Z</time>
      </trkpt>
      <trkpt lat="48.6609" lon="7.30107">
        <ele>551.93</ele>
        <time>2012-06-09T10:52:01Z</time>
      </trkpt>
      <trkpt lat="48.66077" lon="7.3008">
        <ele>555.3</ele>
        <time>2012-06-09T10:52:15Z</time>
      </trkpt>
      <trkpt lat="48.66068" lon="7.30055">
        <ele>560.59</ele>
        <time>2012-06-09T10:52:26Z</time>
      </trkpt>
      <trkpt lat="48.66063" lon="7.30031">
        <ele>565.87</ele>
        <time>2012-06-09T10:52:37Z</time>
      </trkpt>
      <trkpt lat="48.66061" lon="7.30021">
        <ele>568.28</ele>
        <time>2012-06-09T10:52:42Z</time>
      </trkpt>
      <trkpt lat="48.66051" lon="7.29989">
        <ele>571.16</ele>
        <time>2012-06-09T10:52:56Z</time>
      </trkpt>
      <trkpt lat="48.66036" lon="7.29968">
        <ele>569.72</ele>
        <time>2012-06-09T10:53:09Z</time>
      </trkpt>
      <trkpt lat="48.66034" lon="7.29968">
        <ele>569.72</ele>
        <time>2012-06-09T10:53:10Z</time>
      </trkpt>
      <trkpt lat="48.6603" lon="7.29977">
        <ele>569.24</ele>
        <time>2012-06-09T10:53:14Z</time>
      </trkpt>
      <trkpt lat="48.66033" lon="7.29995">
        <ele>568.76</ele>
        <time>2012-06-09T10:53:23Z</time>
      </trkpt>
      <trkpt lat="48.66037" lon="7.30001">
        <ele>570.2</ele>
        <time>2012-06-09T10:53:35Z</time>
      </trkpt>
      <trkpt lat="48.66037" lon="7.30001">
        <ele>570.2</ele>
        <time>2012-06-09T10:53:54Z</time>
      </trkpt>
      <trkpt lat="48.66036" lon="7.30001">
        <ele>570.2</ele>
        <time>2012-06-09T10:54:12Z</time>
      </trkpt>
      <trkpt lat="48.66035" lon="7.29999">
        <ele>569.72</ele>
        <time>2012-06-09T10:54:28Z</time>
      </trkpt>
      <trkpt lat="48.66035" lon="7.29999">
        <ele>569.72</ele>
        <time>2012-06-09T10:54:30Z</time>
      </trkpt>
      <trkpt lat="48.66037" lon="7.30022">
        <ele>570.68</ele>
        <time>2012-06-09T10:54:41Z</time>
      </trkpt>
      <trkpt lat="48.66039" lon="7.30056">
        <ele>569.24</ele>
        <time>2012-06-09T10:54:55Z</time>
      </trkpt>
      <trkpt lat="48.66042" lon="7.30089">
        <ele>569.72</ele>
        <time>2012-06-09T10:55:05Z</time>
      </trkpt>
      <trkpt lat="48.66052" lon="7.30138">
        <ele>569.72</ele>
        <time>2012-06-09T10:55:18Z</time>
      </trkpt>
      <trkpt lat="48.6606" lon="7.30163">
        <ele>569.72</ele>
        <time>2012-06-09T10:55:23Z</time>
      </trkpt>
      <trkpt lat="48.66083" lon="7.30199">
        <ele>568.76</ele>
        <time>2012-06-09T10:55:30Z</time>
      </trkpt>
      <trkpt lat="48.661" lon="7.30222">
        <ele>568.28</ele>
        <time>2012-06-09T10:55:34Z</time>
      </trkpt>
      <trkpt lat="48.66159" lon="7.30291">
        <ele>565.87</ele>
        <time>2012-06-09T10:55:46Z</time>
      </trkpt>
      <trkpt lat="48.66164" lon="7.30296">
        <ele>565.39</ele>
        <time>2012-06-09T10:55:47Z</time>
      </trkpt>
      <trkpt lat="48.66227" lon="7.30349">
        <ele>565.39</ele>
        <time>2012-06-09T10:55:59Z</time>
      </trkpt>
      <trkpt lat="48.66248" lon="7.30368">
        <ele>566.83</ele>
        <time>2012-06-09T10:56:07Z</time>
      </trkpt>
      <trkpt lat="48.6627" lon="7.30397">
        <ele>570.2</ele>
        <time>2012-06-09T10:56:20Z</time>
      </trkpt>
      <trkpt lat="48.66294" lon="7.30418">
        <ele>575.01</ele>
        <time>2012-06-09T10:56:30Z</time>
      </trkpt>
      <trkpt lat="48.66322" lon="7.30448">
        <ele>577.89</ele>
        <time>2012-06-09T10:56:41Z</time>
      </trkpt>
      <trkpt lat="48.66327" lon="7.30453">
        <ele>578.85</ele>
        <time>2012-06-09T10:56:44Z</time>
      </trkpt>
      <trkpt lat="48.66361" lon="7.3047">
        <ele>576.93</ele>
        <time>2012-06-09T10:56:55Z</time>
      </trkpt>
      <trkpt lat="48.66377" lon="7.30481">
        <ele>575.01</ele>
        <time>2012-06-09T10:57:02Z</time>
      </trkpt>
      <trkpt lat="48.66385" lon="7.30487">
        <ele>574.53</ele>
        <time>2012-06-09T10:57:06Z</time>
      </trkpt>
      <trkpt lat="48.66415" lon="7.3051">
        <ele>575.97</ele>
        <time>2012-06-09T10:57:19Z</time>
      </trkpt>
      <trkpt lat="48.6645" lon="7.3053">
        <ele>575.49</ele>
        <time>2012-06-09T10:57:33Z</time>
      </trkpt>
      <trkpt lat="48.66478" lon="7.30552">
        <ele>573.08</ele>
        <time>2012-06-09T10:57:44Z</time>
      </trkpt>
      <trkpt lat="48.66512" lon="7.30579">
        <ele>571.64</ele>
        <time>2012-06-09T10:57:57Z</time>
      </trkpt>
      <trkpt lat="48.66543" lon="7.30609">
        <ele>566.83</ele>
        <time>2012-06-09T10:58:10Z</time>
      </trkpt>
      <trkpt lat="48.66576" lon="7.30638">
        <ele>568.28</ele>
        <time>2012-06-09T10:58:23Z</time>
      </trkpt>
      <trkpt lat="48.66597" lon="7.30663">
        <ele>570.2</ele>
        <time>2012-06-09T10:58:33Z</time>
      </trkpt>
      <trkpt lat="48.66622" lon="7.30701">
        <ele>575.49</ele>
        <time>2012-06-09T10:58:46Z</time>
      </trkpt>
      <trkpt lat="48.66632" lon="7.30717">
        <ele>577.89</ele>
        <time>2012-06-09T10:58:53Z</time>
      </trkpt>
      <trkpt lat="48.66635" lon="7.30724">
        <ele>578.85</ele>
        <time>2012-06-09T10:58:57Z</time>
      </trkpt>
      <trkpt lat="48.66649" lon="7.30746">
        <ele>579.81</ele>
        <time>2012-06-09T10:59:08Z</time>
      </trkpt>
      <trkpt lat="48.66668" lon="7.30785">
        <ele>579.33</ele>
        <time>2012-06-09T10:59:20Z</time>
      </trkpt>
      <trkpt lat="48.66679" lon="7.30822">
        <ele>576.93</ele>
        <time>2012-06-09T10:59:32Z</time>
      </trkpt>
      <trkpt lat="48.66679" lon="7.30828">
        <ele>576.93</ele>
        <time>2012-06-09T10:59:35Z</time>
      </trkpt>
      <trkpt lat="48.66684" lon="7.30873">
        <ele>575.97</ele>
        <time>2012-06-09T10:59:50Z</time>
      </trkpt>
      <trkpt lat="48.66678" lon="7.30912">
        <ele>578.37</ele>
        <time>2012-06-09T11:00:02Z</time>
      </trkpt>
      <trkpt lat="48.66656" lon="7.30947">
        <ele>579.81</ele>
        <time>2012-06-09T11:00:11Z</time>
      </trkpt>
      <trkpt lat="48.66632" lon="7.30962">
        <ele>580.29</ele>
        <time>2012-06-09T11:00:17Z</time>
      </trkpt>
      <trkpt lat="48.66617" lon="7.30965">
        <ele>580.29</ele>
        <time>2012-06-09T11:00:20Z</time>
      </trkpt>
      <trkpt lat="48.66601" lon="7.30965">
        <ele>579.81</ele>
        <time>2012-06-09T11:00:23Z</time>
      </trkpt>
      <trkpt lat="48.66584" lon="7.30961">
        <ele>580.29</ele>
        <time>2012-06-09T11:00:27Z</time>
      </trkpt>
      <trkpt lat="48.66539" lon="7.30952">
        <ele>580.77</ele>
        <time>2012-06-09T11:00:40Z</time>
      </trkpt>
      <trkpt lat="48.66528" lon="7.30951">
        <ele>580.77</ele>
        <time>2012-06-09T11:00:43Z</time>
      </trkpt>
      <trkpt lat="48.66485" lon="7.30963">
        <ele>581.73</ele>
        <time>2012-06-09T11:00:57Z</time>
      </trkpt>
      <trkpt lat="48.66439" lon="7.30983">
        <ele>572.6</ele>
        <time>2012-06-09T11:01:10Z</time>
      </trkpt>
      <trkpt lat="48.66399" lon="7.30998">
        <ele>568.28</ele>
        <time>2012-06-09T11:01:24Z</time>
      </trkpt>
      <trkpt lat="48.6637" lon="7.30991">
        <ele>565.87</ele>
        <time>2012-06-09T11:01:35Z</time>
      </trkpt>
      <trkpt lat="48.66341" lon="7.3096">
        <ele>563.95</ele>
        <time>2012-06-09T11:01:48Z</time>
      </trkpt>
      <trkpt lat="48.66319" lon="7.30929">
        <ele>565.39</ele>
        <time>2012-06-09T11:02:00Z</time>
      </trkpt>
      <trkpt lat="48.66307" lon="7.30895">
        <ele>566.35</ele>
        <time>2012-06-09T11:02:11Z</time>
      </trkpt>
      <trkpt lat="48.66297" lon="7.30864">
        <ele>569.72</ele>
        <time>2012-06-09T11:02:23Z</time>
      </trkpt>
      <trkpt lat="48.66283" lon="7.30823">
        <ele>570.68</ele>
        <time>2012-06-09T11:02:38Z</time>
      </trkpt>
      <trkpt lat="48.66282" lon="7.3082">
        <ele>570.68</ele>
        <time>2012-06-09T11:02:39Z</time>
      </trkpt>
      <trkpt lat="48.66274" lon="7.30795">
        <ele>574.53</ele>
        <time>2012-06-09T11:02:53Z</time>
      </trkpt>
      <trkpt lat="48.66269" lon="7.30764">
        <ele>577.89</ele>
        <time>2012-06-09T11:03:04Z</time>
      </trkpt>
      <trkpt lat="48.66256" lon="7.30729">
        <ele>577.41</ele>
        <time>2012-06-09T11:03:18Z</time>
      </trkpt>
      <trkpt lat="48.66248" lon="7.30709">
        <ele>577.89</ele>
        <time>2012-06-09T11:03:28Z</time>
      </trkpt>
      <trkpt lat="48.66229" lon="7.30685">
        <ele>576.45</ele>
        <time>2012-06-09T11:03:41Z</time>
      </trkpt>
      <trkpt lat="48.66211" lon="7.30669">
        <ele>576.93</ele>
        <time>2012-06-09T11:03:53Z</time>
      </trkpt>
      <trkpt lat="48.66184" lon="7.30658">
        <ele>579.81</ele>
        <time>2012-06-09T11:04:08Z</time>
      </trkpt>
      <trkpt lat="48.66174" lon="7.30654">
        <ele>581.25</ele>
        <time>2012-06-09T11:04:15Z</time>
      </trkpt>
      <trkpt lat="48.66169" lon="7.30654">
        <ele>582.22</ele>
        <time>2012-06-09T11:04:18Z</time>
      </trkpt>
      <trkpt lat="48.66148" lon="7.30646">
        <ele>586.54</ele>
        <time>2012-06-09T11:04:34Z</time>
      </trkpt>
      <trkpt lat="48.66136" lon="7.30644">
        <ele>588.46</ele>
        <time>2012-06-09T11:04:44Z</time>
      </trkpt>
      <trkpt lat="48.66116" lon="7.3064">
        <ele>590.39</ele>
        <time>2012-06-09T11:04:59Z</time>
      </trkpt>
      <trkpt lat="48.66091" lon="7.30632">
        <ele>594.71</ele>
        <time>2012-06-09T11:05:16Z</time>
      </trkpt>
      <trkpt lat="48.66073" lon="7.30626">
        <ele>597.12</ele>
        <time>2012-06-09T11:05:30Z</time>
      </trkpt>
      <trkpt lat="48.66056" lon="7.30624">
        <ele>600</ele>
        <time>2012-06-09T11:05:41Z</time>
      </trkpt>
      <trkpt lat="48.66037" lon="7.30611">
        <ele>599.52</ele>
        <time>2012-06-09T11:05:56Z</time>
      </trkpt>
      <trkpt lat="48.66031" lon="7.30594">
        <ele>601.44</ele>
        <time>2012-06-09T11:06:07Z</time>
      </trkpt>
      <trkpt lat="48.6603" lon="7.30588">
        <ele>601.44</ele>
        <time>2012-06-09T11:06:13Z</time>
      </trkpt>
      <trkpt lat="48.66028" lon="7.30584">
        <ele>600.96</ele>
        <time>2012-06-09T11:06:16Z</time>
      </trkpt>
      <trkpt lat="48.66025" lon="7.30581">
        <ele>600.48</ele>
        <time>2012-06-09T11:06:23Z</time>
      </trkpt>
      <trkpt lat="48.66024" lon="7.30574">
        <ele>600.96</ele>
        <time>2012-06-09T11:06:28Z</time>
      </trkpt>
      <trkpt lat="48.66021" lon="7.30566">
        <ele>601.44</ele>
        <time>2012-06-09T11:06:32Z</time>
      </trkpt>
      <trkpt lat="48.66021" lon="7.3056">
        <ele>601.44</ele>
        <time>2012-06-09T11:06:36Z</time>
      </trkpt>
      <trkpt lat="48.6602" lon="7.30552">
        <ele>601.92</ele>
        <time>2012-06-09T11:06:41Z</time>
      </trkpt>
      <trkpt lat="48.66012" lon="7.30527">
        <ele>600.96</ele>
        <time>2012-06-09T11:06:56Z</time>
      </trkpt>
      <trkpt lat="48.66009" lon="7.30515">
        <ele>601.92</ele>
        <time>2012-06-09T11:07:03Z</time>
      </trkpt>
      <trkpt lat="48.66004" lon="7.30501">
        <ele>603.85</ele>
        <time>2012-06-09T11:07:17Z</time>
      </trkpt>
      <trkpt lat="48.66004" lon="7.30501">
        <ele>603.85</ele>
        <time>2012-06-09T11:07:36Z</time>
      </trkpt>
      <trkpt lat="48.66004" lon="7.30501">
        <ele>603.85</ele>
        <time>2012-06-09T11:07:57Z</time>
      </trkpt>
      <trkpt lat="48.66004" lon="7.30501">
        <ele>603.85</ele>
        <time>2012-06-09T11:08:18Z</time>
      </trkpt>
      <trkpt lat="48.66004" lon="7.30499">
        <ele>603.85</ele>
        <time>2012-06-09T11:08:33Z</time>
      </trkpt>
      <trkpt lat="48.66003" lon="7.305">
        <ele>603.36</ele>
        <time>2012-06-09T11:08:45Z</time>
      </trkpt>
      <trkpt lat="48.66003" lon="7.305">
        <ele>603.36</ele>
        <time>2012-06-09T11:09:14Z</time>
      </trkpt>
      <trkpt lat="48.66002" lon="7.305">
        <ele>602.88</ele>
        <time>2012-06-09T11:09:36Z</time>
      </trkpt>
      <trkpt lat="48.66002" lon="7.305">
        <ele>602.88</ele>
        <time>2012-06-09T11:09:59Z</time>
      </trkpt>
      <trkpt lat="48.66002" lon="7.305">
        <ele>603.36</ele>
        <time>2012-06-09T11:10:25Z</time>
      </trkpt>
      <trkpt lat="48.66002" lon="7.305">
        <ele>603.36</ele>
        <time>2012-06-09T11:10:57Z</time>
      </trkpt>
      <trkpt lat="48.66002" lon="7.305">
        <ele>603.36</ele>
        <time>2012-06-09T11:11:21Z</time>
      </trkpt>
      <trkpt lat="48.66002" lon="7.30499">
        <ele>604.81</ele>
        <time>2012-06-09T11:11:34Z</time>
      </trkpt>
      <trkpt lat="48.66002" lon="7.30498">
        <ele>604.81</ele>
        <time>2012-06-09T11:11:53Z</time>
      </trkpt>
      <trkpt lat="48.66" lon="7.30497">
        <ele>605.29</ele>
        <time>2012-06-09T11:12:06Z</time>
      </trkpt>
      <trkpt lat="48.65999" lon="7.30496">
        <ele>604.81</ele>
        <time>2012-06-09T11:12:14Z</time>
      </trkpt>
      <trkpt lat="48.6599" lon="7.30486">
        <ele>606.25</ele>
        <time>2012-06-09T11:12:23Z</time>
      </trkpt>
      <trkpt lat="48.65977" lon="7.30476">
        <ele>607.21</ele>
        <time>2012-06-09T11:12:33Z</time>
      </trkpt>
      <trkpt lat="48.65963" lon="7.30468">
        <ele>608.17</ele>
        <time>2012-06-09T11:12:43Z</time>
      </trkpt>
      <trkpt lat="48.65946" lon="7.30458">
        <ele>608.65</ele>
        <time>2012-06-09T11:12:56Z</time>
      </trkpt>
      <trkpt lat="48.6593" lon="7.30446">
        <ele>609.61</ele>
        <time>2012-06-09T11:13:08Z</time>
      </trkpt>
      <trkpt lat="48.65908" lon="7.30434">
        <ele>609.13</ele>
        <time>2012-06-09T11:13:24Z</time>
      </trkpt>
      <trkpt lat="48.65891" lon="7.3042">
        <ele>607.69</ele>
        <time>2012-06-09T11:13:38Z</time>
      </trkpt>
      <trkpt lat="48.65875" lon="7.30401">
        <ele>609.61</ele>
        <time>2012-06-09T11:13:52Z</time>
      </trkpt>
      <trkpt lat="48.65862" lon="7.30383">
        <ele>612.02</ele>
        <time>2012-06-09T11:14:03Z</time>
      </trkpt>
      <trkpt lat="48.6585" lon="7.3037">
        <ele>613.94</ele>
        <time>2012-06-09T11:14:13Z</time>
      </trkpt>
      <trkpt lat="48.65847" lon="7.30364">
        <ele>614.42</ele>
        <time>2012-06-09T11:14:16Z</time>
      </trkpt>
      <trkpt lat="48.65835" lon="7.30343">
        <ele>618.26</ele>
        <time>2012-06-09T11:14:29Z</time>
      </trkpt>
      <trkpt lat="48.65826" lon="7.30322">
        <ele>619.71</ele>
        <time>2012-06-09T11:14:43Z</time>
      </trkpt>
      <trkpt lat="48.65823" lon="7.30315">
        <ele>620.67</ele>
        <time>2012-06-09T11:14:46Z</time>
      </trkpt>
      <trkpt lat="48.65823" lon="7.30304">
        <ele>622.11</ele>
        <time>2012-06-09T11:14:51Z</time>
      </trkpt>
      <trkpt lat="48.65816" lon="7.30278">
        <ele>627.88</ele>
        <time>2012-06-09T11:15:06Z</time>
      </trkpt>
      <trkpt lat="48.65805" lon="7.30256">
        <ele>626.92</ele>
        <time>2012-06-09T11:15:17Z</time>
      </trkpt>
      <trkpt lat="48.65803" lon="7.3025">
        <ele>626.92</ele>
        <time>2012-06-09T11:15:21Z</time>
      </trkpt>
      <trkpt lat="48.65798" lon="7.30245">
        <ele>627.88</ele>
        <time>2012-06-09T11:15:26Z</time>
      </trkpt>
      <trkpt lat="48.6577" lon="7.30247">
        <ele>630.76</ele>
        <time>2012-06-09T11:15:41Z</time>
      </trkpt>
      <trkpt lat="48.65765" lon="7.30247">
        <ele>631.24</ele>
        <time>2012-06-09T11:15:45Z</time>
      </trkpt>
      <trkpt lat="48.65755" lon="7.30246">
        <ele>629.32</ele>
        <time>2012-06-09T11:15:52Z</time>
      </trkpt>
      <trkpt lat="48.65749" lon="7.30246">
        <ele>629.32</ele>
        <time>2012-06-09T11:15:56Z</time>
      </trkpt>
      <trkpt lat="48.65722" lon="7.30249">
        <ele>628.36</ele>
        <time>2012-06-09T11:16:11Z</time>
      </trkpt>
      <trkpt lat="48.65699" lon="7.30246">
        <ele>628.84</ele>
        <time>2012-06-09T11:16:22Z</time>
      </trkpt>
      <trkpt lat="48.65694" lon="7.30244">
        <ele>629.32</ele>
        <time>2012-06-09T11:16:24Z</time>
      </trkpt>
      <trkpt lat="48.65665" lon="7.30244">
        <ele>631.24</ele>
        <time>2012-06-09T11:16:37Z</time>
      </trkpt>
      <trkpt lat="48.65625" lon="7.30243">
        <ele>635.09</ele>
        <time>2012-06-09T11:16:50Z</time>
      </trkpt>
      <trkpt lat="48.6559" lon="7.30228">
        <ele>635.09</ele>
        <time>2012-06-09T11:17:04Z</time>
      </trkpt>
      <trkpt lat="48.6556" lon="7.30199">
        <ele>636.53</ele>
        <time>2012-06-09T11:17:17Z</time>
      </trkpt>
      <trkpt lat="48.65529" lon="7.30165">
        <ele>638.45</ele>
        <time>2012-06-09T11:17:29Z</time>
      </trkpt>
      <trkpt lat="48.65504" lon="7.30138">
        <ele>638.45</ele>
        <time>2012-06-09T11:17:41Z</time>
      </trkpt>
      <trkpt lat="48.6548" lon="7.30112">
        <ele>637.97</ele>
        <time>2012-06-09T11:17:53Z</time>
      </trkpt>
      <trkpt lat="48.65461" lon="7.30083">
        <ele>640.38</ele>
        <time>2012-06-09T11:18:04Z</time>
      </trkpt>
      <trkpt lat="48.65441" lon="7.30053">
        <ele>641.34</ele>
        <time>2012-06-09T11:18:16Z</time>
      </trkpt>
      <trkpt lat="48.65426" lon="7.30032">
        <ele>643.74</ele>
        <time>2012-06-09T11:18:26Z</time>
      </trkpt>
      <trkpt lat="48.6541" lon="7.30007">
        <ele>646.62</ele>
        <time>2012-06-09T11:18:37Z</time>
      </trkpt>
      <trkpt lat="48.65403" lon="7.29997">
        <ele>646.62</ele>
        <time>2012-06-09T11:18:43Z</time>
      </trkpt>
      <trkpt lat="48.65388" lon="7.29976">
        <ele>647.59</ele>
        <time>2012-06-09T11:18:53Z</time>
      </trkpt>
      <trkpt lat="48.65378" lon="7.29968">
        <ele>648.07</ele>
        <time>2012-06-09T11:18:58Z</time>
      </trkpt>
      <trkpt lat="48.65368" lon="7.29962">
        <ele>648.55</ele>
        <time>2012-06-09T11:19:04Z</time>
      </trkpt>
      <trkpt lat="48.65341" lon="7.29941">
        <ele>649.03</ele>
        <time>2012-06-09T11:19:19Z</time>
      </trkpt>
      <trkpt lat="48.65322" lon="7.29921">
        <ele>646.14</ele>
        <time>2012-06-09T11:19:31Z</time>
      </trkpt>
      <trkpt lat="48.653" lon="7.29904">
        <ele>645.66</ele>
        <time>2012-06-09T11:19:42Z</time>
      </trkpt>
      <trkpt lat="48.65278" lon="7.29884">
        <ele>648.55</ele>
        <time>2012-06-09T11:19:56Z</time>
      </trkpt>
      <trkpt lat="48.65263" lon="7.29856">
        <ele>649.51</ele>
        <time>2012-06-09T11:20:09Z</time>
      </trkpt>
      <trkpt lat="48.65251" lon="7.29819">
        <ele>651.43</ele>
        <time>2012-06-09T11:20:23Z</time>
      </trkpt>
      <trkpt lat="48.65242" lon="7.29779">
        <ele>650.95</ele>
        <time>2012-06-09T11:20:37Z</time>
      </trkpt>
      <trkpt lat="48.65227" lon="7.29738">
        <ele>650.47</ele>
        <time>2012-06-09T11:20:50Z</time>
      </trkpt>
      <trkpt lat="48.65206" lon="7.29685">
        <ele>651.91</ele>
        <time>2012-06-09T11:21:04Z</time>
      </trkpt>
      <trkpt lat="48.65183" lon="7.2964">
        <ele>653.83</ele>
        <time>2012-06-09T11:21:17Z</time>
      </trkpt>
      <trkpt lat="48.65162" lon="7.29598">
        <ele>656.24</ele>
        <time>2012-06-09T11:21:29Z</time>
      </trkpt>
      <trkpt lat="48.6515" lon="7.2957">
        <ele>660.08</ele>
        <time>2012-06-09T11:21:39Z</time>
      </trkpt>
      <trkpt lat="48.65148" lon="7.29566">
        <ele>660.08</ele>
        <time>2012-06-09T11:21:41Z</time>
      </trkpt>
      <trkpt lat="48.65143" lon="7.29528">
        <ele>658.16</ele>
        <time>2012-06-09T11:21:53Z</time>
      </trkpt>
      <trkpt lat="48.65142" lon="7.29521">
        <ele>658.64</ele>
        <time>2012-06-09T11:21:56Z</time>
      </trkpt>
      <trkpt lat="48.65139" lon="7.29507">
        <ele>658.16</ele>
        <time>2012-06-09T11:22:02Z</time>
      </trkpt>
      <trkpt lat="48.6513" lon="7.29481">
        <ele>658.64</ele>
        <time>2012-06-09T11:22:15Z</time>
      </trkpt>
      <trkpt lat="48.65123" lon="7.29471">
        <ele>660.08</ele>
        <time>2012-06-09T11:22:26Z</time>
      </trkpt>
      <trkpt lat="48.65118" lon="7.29465">
        <ele>661.04</ele>
        <time>2012-06-09T11:22:31Z</time>
      </trkpt>
      <trkpt lat="48.65126" lon="7.29456">
        <ele>661.52</ele>
        <time>2012-06-09T11:22:42Z</time>
      </trkpt>
      <trkpt lat="48.65126" lon="7.29456">
        <ele>661.52</ele>
        <time>2012-06-09T11:22:48Z</time>
      </trkpt>
      <trkpt lat="48.65128" lon="7.29457">
        <ele>661.04</ele>
        <time>2012-06-09T11:23:02Z</time>
      </trkpt>
      <trkpt lat="48.65128" lon="7.29457">
        <ele>661.04</ele>
        <time>2012-06-09T11:23:28Z</time>
      </trkpt>
      <trkpt lat="48.65128" lon="7.29457">
        <ele>661.04</ele>
        <time>2012-06-09T11:23:43Z</time>
      </trkpt>
      <trkpt lat="48.65128" lon="7.29457">
        <ele>661.04</ele>
        <time>2012-06-09T11:24:17Z</time>
      </trkpt>
      <trkpt lat="48.65128" lon="7.29457">
        <ele>661.04</ele>
        <time>2012-06-09T11:24:20Z</time>
      </trkpt>
      <trkpt lat="48.6512" lon="7.29454">
        <ele>661.52</ele>
        <time>2012-06-09T11:24:27Z</time>
      </trkpt>
      <trkpt lat="48.65103" lon="7.2942">
        <ele>662.01</ele>
        <time>2012-06-09T11:24:40Z</time>
      </trkpt>
      <trkpt lat="48.65079" lon="7.29403">
        <ele>663.93</ele>
        <time>2012-06-09T11:24:53Z</time>
      </trkpt>
      <trkpt lat="48.65047" lon="7.29407">
        <ele>664.89</ele>
        <time>2012-06-09T11:25:06Z</time>
      </trkpt>
      <trkpt lat="48.65013" lon="7.29423">
        <ele>662.97</ele>
        <time>2012-06-09T11:25:18Z</time>
      </trkpt>
      <trkpt lat="48.64972" lon="7.29431">
        <ele>662.49</ele>
        <time>2012-06-09T11:25:32Z</time>
      </trkpt>
      <trkpt lat="48.64934" lon="7.29425">
        <ele>662.97</ele>
        <time>2012-06-09T11:25:46Z</time>
      </trkpt>
      <trkpt lat="48.64898" lon="7.29416">
        <ele>663.93</ele>
        <time>2012-06-09T11:26:00Z</time>
      </trkpt>
      <trkpt lat="48.64884" lon="7.29408">
        <ele>666.33</ele>
        <time>2012-06-09T11:26:11Z</time>
      </trkpt>
      <trkpt lat="48.6487" lon="7.29396">
        <ele>664.89</ele>
        <time>2012-06-09T11:26:22Z</time>
      </trkpt>
      <trkpt lat="48.64865" lon="7.29393">
        <ele>665.85</ele>
        <time>2012-06-09T11:26:28Z</time>
      </trkpt>
      <trkpt lat="48.64859" lon="7.29389">
        <ele>666.33</ele>
        <time>2012-06-09T11:26:34Z</time>
      </trkpt>
      <trkpt lat="48.64857" lon="7.29387">
        <ele>666.81</ele>
        <time>2012-06-09T11:26:36Z</time>
      </trkpt>
      <trkpt lat="48.64841" lon="7.2938">
        <ele>667.77</ele>
        <time>2012-06-09T11:26:51Z</time>
      </trkpt>
      <trkpt lat="48.64834" lon="7.29378">
        <ele>669.7</ele>
        <time>2012-06-09T11:27:01Z</time>
      </trkpt>
      <trkpt lat="48.64817" lon="7.29377">
        <ele>673.06</ele>
        <time>2012-06-09T11:27:15Z</time>
      </trkpt>
      <trkpt lat="48.64811" lon="7.29377">
        <ele>673.54</ele>
        <time>2012-06-09T11:27:19Z</time>
      </trkpt>
      <trkpt lat="48.64797" lon="7.29378">
        <ele>674.5</ele>
        <time>2012-06-09T11:27:32Z</time>
      </trkpt>
      <trkpt lat="48.64779" lon="7.29379">
        <ele>676.42</ele>
        <time>2012-06-09T11:27:45Z</time>
      </trkpt>
      <trkpt lat="48.64774" lon="7.29381">
        <ele>676.91</ele>
        <time>2012-06-09T11:27:49Z</time>
      </trkpt>
      <trkpt lat="48.64772" lon="7.29382">
        <ele>676.91</ele>
        <time>2012-06-09T11:27:51Z</time>
      </trkpt>
      <trkpt lat="48.64764" lon="7.29379">
        <ele>678.35</ele>
        <time>2012-06-09T11:27:58Z</time>
      </trkpt>
      <trkpt lat="48.64744" lon="7.29382">
        <ele>681.23</ele>
        <time>2012-06-09T11:28:13Z</time>
      </trkpt>
      <trkpt lat="48.64731" lon="7.29383">
        <ele>683.15</ele>
        <time>2012-06-09T11:28:23Z</time>
      </trkpt>
      <trkpt lat="48.64726" lon="7.29378">
        <ele>682.19</ele>
        <time>2012-06-09T11:28:36Z</time>
      </trkpt>
      <trkpt lat="48.64726" lon="7.29378">
        <ele>682.19</ele>
        <time>2012-06-09T11:28:59Z</time>
      </trkpt>
      <trkpt lat="48.64726" lon="7.29379">
        <ele>681.71</ele>
        <time>2012-06-09T11:29:21Z</time>
      </trkpt>
      <trkpt lat="48.64725" lon="7.29379">
        <ele>681.71</ele>
        <time>2012-06-09T11:29:41Z</time>
      </trkpt>
      <trkpt lat="48.64724" lon="7.29379">
        <ele>681.23</ele>
        <time>2012-06-09T11:29:50Z</time>
      </trkpt>
      <trkpt lat="48.64724" lon="7.29379">
        <ele>681.23</ele>
        <time>2012-06-09T11:30:05Z</time>
      </trkpt>
      <trkpt lat="48.64724" lon="7.29379">
        <ele>681.23</ele>
        <time>2012-06-09T11:30:23Z</time>
      </trkpt>
      <trkpt lat="48.64724" lon="7.29382">
        <ele>681.23</ele>
        <time>2012-06-09T11:30:39Z</time>
      </trkpt>
      <trkpt lat="48.64724" lon="7.29381">
        <ele>680.75</ele>
        <time>2012-06-09T11:30:50Z</time>
      </trkpt>
      <trkpt lat="48.64724" lon="7.29381">
        <ele>680.75</ele>
        <time>2012-06-09T11:31:18Z</time>
      </trkpt>
      <trkpt lat="48.64724" lon="7.29381">
        <ele>680.75</ele>
        <time>2012-06-09T11:31:47Z</time>
      </trkpt>
      <trkpt lat="48.64724" lon="7.29381">
        <ele>680.75</ele>
        <time>2012-06-09T11:32:15Z</time>
      </trkpt>
      <trkpt lat="48.64724" lon="7.29381">
        <ele>680.75</ele>
        <time>2012-06-09T11:32:48Z</time>
      </trkpt>
      <trkpt lat="48.64724" lon="7.29381">
        <ele>680.75</ele>
        <time>2012-06-09T11:33:15Z</time>
      </trkpt>
      <trkpt lat="48.64724" lon="7.2938">
        <ele>680.75</ele>
        <time>2012-06-09T11:33:46Z</time>
      </trkpt>
      <trkpt lat="48.64724" lon="7.29381">
        <ele>681.23</ele>
        <time>2012-06-09T11:33:56Z</time>
      </trkpt>
      <trkpt lat="48.64725" lon="7.29379">
        <ele>681.71</ele>
        <time>2012-06-09T11:34:09Z</time>
      </trkpt>
      <trkpt lat="48.6472" lon="7.29371">
        <ele>682.67</ele>
        <time>2012-06-09T11:34:14Z</time>
      </trkpt>
      <trkpt lat="48.64703" lon="7.29337">
        <ele>684.12</ele>
        <time>2012-06-09T11:34:27Z</time>
      </trkpt>
      <trkpt lat="48.64694" lon="7.2932">
        <ele>686.04</ele>
        <time>2012-06-09T11:34:35Z</time>
      </trkpt>
      <trkpt lat="48.64687" lon="7.29302">
        <ele>687</ele>
        <time>2012-06-09T11:34:44Z</time>
      </trkpt>
      <trkpt lat="48.64679" lon="7.29272">
        <ele>688.92</ele>
        <time>2012-06-09T11:34:55Z</time>
      </trkpt>
      <trkpt lat="48.64669" lon="7.29241">
        <ele>691.81</ele>
        <time>2012-06-09T11:35:07Z</time>
      </trkpt>
      <trkpt lat="48.64653" lon="7.29215">
        <ele>691.81</ele>
        <time>2012-06-09T11:35:17Z</time>
      </trkpt>
      <trkpt lat="48.64648" lon="7.29209">
        <ele>692.29</ele>
        <time>2012-06-09T11:35:20Z</time>
      </trkpt>
      <trkpt lat="48.64639" lon="7.29204">
        <ele>693.73</ele>
        <time>2012-06-09T11:35:25Z</time>
      </trkpt>
      <trkpt lat="48.64615" lon="7.29186">
        <ele>694.69</ele>
        <time>2012-06-09T11:35:38Z</time>
      </trkpt>
      <trkpt lat="48.64605" lon="7.29176">
        <ele>693.73</ele>
        <time>2012-06-09T11:35:43Z</time>
      </trkpt>
      <trkpt lat="48.64599" lon="7.29171">
        <ele>693.25</ele>
        <time>2012-06-09T11:35:47Z</time>
      </trkpt>
      <trkpt lat="48.64586" lon="7.29166">
        <ele>692.29</ele>
        <time>2012-06-09T11:35:53Z</time>
      </trkpt>
      <trkpt lat="48.64564" lon="7.29138">
        <ele>688.92</ele>
        <time>2012-06-09T11:36:07Z</time>
      </trkpt>
      <trkpt lat="48.64557" lon="7.29125">
        <ele>687.96</ele>
        <time>2012-06-09T11:36:16Z</time>
      </trkpt>
      <trkpt lat="48.64555" lon="7.29123">
        <ele>687.96</ele>
        <time>2012-06-09T11:36:17Z</time>
      </trkpt>
      <trkpt lat="48.64549" lon="7.29114">
        <ele>688.92</ele>
        <time>2012-06-09T11:36:23Z</time>
      </trkpt>
      <trkpt lat="48.64544" lon="7.29104">
        <ele>688.92</ele>
        <time>2012-06-09T11:36:28Z</time>
      </trkpt>
      <trkpt lat="48.64528" lon="7.29075">
        <ele>687.48</ele>
        <time>2012-06-09T11:36:43Z</time>
      </trkpt>
      <trkpt lat="48.64513" lon="7.29042">
        <ele>687</ele>
        <time>2012-06-09T11:36:57Z</time>
      </trkpt>
      <trkpt lat="48.64501" lon="7.29018">
        <ele>685.56</ele>
        <time>2012-06-09T11:37:07Z</time>
      </trkpt>
      <trkpt lat="48.64492" lon="7.29003">
        <ele>685.08</ele>
        <time>2012-06-09T11:37:14Z</time>
      </trkpt>
      <trkpt lat="48.6449" lon="7.29001">
        <ele>684.12</ele>
        <time>2012-06-09T11:37:16Z</time>
      </trkpt>
      <trkpt lat="48.64483" lon="7.28993">
        <ele>684.12</ele>
        <time>2012-06-09T11:37:21Z</time>
      </trkpt>
      <trkpt lat="48.64464" lon="7.2897">
        <ele>684.12</ele>
        <time>2012-06-09T11:37:34Z</time>
      </trkpt>
      <trkpt lat="48.64434" lon="7.2894">
        <ele>687</ele>
        <time>2012-06-09T11:37:47Z</time>
      </trkpt>
      <trkpt lat="48.644" lon="7.28908">
        <ele>688.44</ele>
        <time>2012-06-09T11:38:01Z</time>
      </trkpt>
      <trkpt lat="48.64369" lon="7.28872">
        <ele>687</ele>
        <time>2012-06-09T11:38:15Z</time>
      </trkpt>
      <trkpt lat="48.64352" lon="7.28837">
        <ele>686.52</ele>
        <time>2012-06-09T11:38:26Z</time>
      </trkpt>
      <trkpt lat="48.64338" lon="7.28793">
        <ele>685.56</ele>
        <time>2012-06-09T11:38:38Z</time>
      </trkpt>
      <trkpt lat="48.64323" lon="7.28745">
        <ele>682.19</ele>
        <time>2012-06-09T11:38:50Z</time>
      </trkpt>
      <trkpt lat="48.64312" lon="7.28695">
        <ele>680.75</ele>
        <time>2012-06-09T11:39:01Z</time>
      </trkpt>
      <trkpt lat="48.64311" lon="7.2869">
        <ele>680.27</ele>
        <time>2012-06-09T11:39:02Z</time>
      </trkpt>
      <trkpt lat="48.6431" lon="7.28656">
        <ele>681.23</ele>
        <time>2012-06-09T11:39:12Z</time>
      </trkpt>
      <trkpt lat="48.64308" lon="7.2864">
        <ele>681.71</ele>
        <time>2012-06-09T11:39:18Z</time>
      </trkpt>
      <trkpt lat="48.6431" lon="7.2858">
        <ele>688.92</ele>
        <time>2012-06-09T11:39:33Z</time>
      </trkpt>
      <trkpt lat="48.64317" lon="7.28543">
        <ele>690.36</ele>
        <time>2012-06-09T11:39:42Z</time>
      </trkpt>
      <trkpt lat="48.64319" lon="7.28522">
        <ele>690.84</ele>
        <time>2012-06-09T11:39:48Z</time>
      </trkpt>
      <trkpt lat="48.64317" lon="7.28487">
        <ele>695.17</ele>
        <time>2012-06-09T11:39:56Z</time>
      </trkpt>
      <trkpt lat="48.64314" lon="7.28442">
        <ele>698.05</ele>
        <time>2012-06-09T11:40:05Z</time>
      </trkpt>
      <trkpt lat="48.64299" lon="7.28361">
        <ele>705.75</ele>
        <time>2012-06-09T11:40:20Z</time>
      </trkpt>
      <trkpt lat="48.6427" lon="7.28309">
        <ele>696.61</ele>
        <time>2012-06-09T11:40:32Z</time>
      </trkpt>
      <trkpt lat="48.64239" lon="7.2828">
        <ele>696.13</ele>
        <time>2012-06-09T11:40:45Z</time>
      </trkpt>
      <trkpt lat="48.64231" lon="7.28277">
        <ele>695.65</ele>
        <time>2012-06-09T11:40:48Z</time>
      </trkpt>
      <trkpt lat="48.6422" lon="7.28272">
        <ele>696.13</ele>
        <time>2012-06-09T11:40:52Z</time>
      </trkpt>
      <trkpt lat="48.64183" lon="7.28263">
        <ele>694.21</ele>
        <time>2012-06-09T11:41:04Z</time>
      </trkpt>
      <trkpt lat="48.6415" lon="7.28254">
        <ele>693.25</ele>
        <time>2012-06-09T11:41:16Z</time>
      </trkpt>
      <trkpt lat="48.64122" lon="7.28243">
        <ele>693.73</ele>
        <time>2012-06-09T11:41:27Z</time>
      </trkpt>
      <trkpt lat="48.64096" lon="7.2823">
        <ele>693.25</ele>
        <time>2012-06-09T11:41:39Z</time>
      </trkpt>
      <trkpt lat="48.64069" lon="7.2823">
        <ele>693.25</ele>
        <time>2012-06-09T11:41:51Z</time>
      </trkpt>
      <trkpt lat="48.64047" lon="7.28229">
        <ele>694.69</ele>
        <time>2012-06-09T11:42:05Z</time>
      </trkpt>
      <trkpt lat="48.64029" lon="7.28235">
        <ele>696.61</ele>
        <time>2012-06-09T11:42:17Z</time>
      </trkpt>
      <trkpt lat="48.64022" lon="7.28238">
        <ele>698.05</ele>
        <time>2012-06-09T11:42:28Z</time>
      </trkpt>
      <trkpt lat="48.64022" lon="7.28238">
        <ele>698.05</ele>
        <time>2012-06-09T11:42:48Z</time>
      </trkpt>
      <trkpt lat="48.64012" lon="7.28238">
        <ele>699.02</ele>
        <time>2012-06-09T11:43:00Z</time>
      </trkpt>
      <trkpt lat="48.63993" lon="7.28245">
        <ele>703.34</ele>
        <time>2012-06-09T11:43:16Z</time>
      </trkpt>
      <trkpt lat="48.63972" lon="7.28257">
        <ele>703.82</ele>
        <time>2012-06-09T11:43:28Z</time>
      </trkpt>
      <trkpt lat="48.63948" lon="7.28265">
        <ele>704.78</ele>
        <time>2012-06-09T11:43:41Z</time>
      </trkpt>
      <trkpt lat="48.63931" lon="7.28278">
        <ele>704.78</ele>
        <time>2012-06-09T11:43:51Z</time>
      </trkpt>
      <trkpt lat="48.639" lon="7.2831">
        <ele>701.9</ele>
        <time>2012-06-09T11:44:03Z</time>
      </trkpt>
      <trkpt lat="48.63894" lon="7.28317">
        <ele>700.94</ele>
        <time>2012-06-09T11:44:05Z</time>
      </trkpt>
      <trkpt lat="48.63882" lon="7.28326">
        <ele>699.98</ele>
        <time>2012-06-09T11:44:08Z</time>
      </trkpt>
      <trkpt lat="48.63867" lon="7.28333">
        <ele>698.05</ele>
        <time>2012-06-09T11:44:12Z</time>
      </trkpt>
      <trkpt lat="48.63843" lon="7.28343">
        <ele>696.13</ele>
        <time>2012-06-09T11:44:18Z</time>
      </trkpt>
      <trkpt lat="48.6382" lon="7.28348">
        <ele>691.81</ele>
        <time>2012-06-09T11:44:23Z</time>
      </trkpt>
      <trkpt lat="48.63789" lon="7.28318">
        <ele>684.12</ele>
        <time>2012-06-09T11:44:33Z</time>
      </trkpt>
      <trkpt lat="48.63766" lon="7.28287">
        <ele>677.87</ele>
        <time>2012-06-09T11:44:44Z</time>
      </trkpt>
      <trkpt lat="48.63738" lon="7.28245">
        <ele>670.66</ele>
        <time>2012-06-09T11:44:55Z</time>
      </trkpt>
      <trkpt lat="48.63725" lon="7.28223">
        <ele>668.25</ele>
        <time>2012-06-09T11:44:59Z</time>
      </trkpt>
      <trkpt lat="48.63707" lon="7.28196">
        <ele>665.37</ele>
        <time>2012-06-09T11:45:05Z</time>
      </trkpt>
      <trkpt lat="48.63697" lon="7.28185">
        <ele>663.93</ele>
        <time>2012-06-09T11:45:08Z</time>
      </trkpt>
      <trkpt lat="48.63682" lon="7.28161">
        <ele>662.49</ele>
        <time>2012-06-09T11:45:12Z</time>
      </trkpt>
      <trkpt lat="48.63669" lon="7.28132">
        <ele>661.52</ele>
        <time>2012-06-09T11:45:16Z</time>
      </trkpt>
      <trkpt lat="48.63664" lon="7.28121">
        <ele>660.56</ele>
        <time>2012-06-09T11:45:18Z</time>
      </trkpt>
      <trkpt lat="48.63632" lon="7.28063">
        <ele>660.56</ele>
        <time>2012-06-09T11:45:30Z</time>
      </trkpt>
      <trkpt lat="48.6362" lon="7.28016">
        <ele>667.77</ele>
        <time>2012-06-09T11:45:40Z</time>
      </trkpt>
      <trkpt lat="48.63607" lon="7.27977">
        <ele>674.02</ele>
        <time>2012-06-09T11:45:49Z</time>
      </trkpt>
      <trkpt lat="48.63586" lon="7.27945">
        <ele>678.83</ele>
        <time>2012-06-09T11:45:59Z</time>
      </trkpt>
      <trkpt lat="48.63565" lon="7.27913">
        <ele>685.08</ele>
        <time>2012-06-09T11:46:10Z</time>
      </trkpt>
      <trkpt lat="48.63539" lon="7.27874">
        <ele>690.84</ele>
        <time>2012-06-09T11:46:21Z</time>
      </trkpt>
      <trkpt lat="48.63533" lon="7.27864">
        <ele>691.33</ele>
        <time>2012-06-09T11:46:23Z</time>
      </trkpt>
      <trkpt lat="48.63514" lon="7.27843">
        <ele>693.25</ele>
        <time>2012-06-09T11:46:28Z</time>
      </trkpt>
      <trkpt lat="48.63486" lon="7.27812">
        <ele>694.69</ele>
        <time>2012-06-09T11:46:34Z</time>
      </trkpt>
      <trkpt lat="48.63462" lon="7.27778">
        <ele>694.21</ele>
        <time>2012-06-09T11:46:39Z</time>
      </trkpt>
      <trkpt lat="48.63441" lon="7.27755">
        <ele>693.25</ele>
        <time>2012-06-09T11:46:43Z</time>
      </trkpt>
      <trkpt lat="48.6342" lon="7.27734">
        <ele>692.29</ele>
        <time>2012-06-09T11:46:47Z</time>
      </trkpt>
      <trkpt lat="48.63366" lon="7.27683">
        <ele>687.48</ele>
        <time>2012-06-09T11:46:57Z</time>
      </trkpt>
      <trkpt lat="48.63333" lon="7.27641">
        <ele>685.08</ele>
        <time>2012-06-09T11:47:06Z</time>
      </trkpt>
      <trkpt lat="48.6333" lon="7.27619">
        <ele>683.63</ele>
        <time>2012-06-09T11:47:10Z</time>
      </trkpt>
      <trkpt lat="48.63329" lon="7.27563">
        <ele>682.67</ele>
        <time>2012-06-09T11:47:20Z</time>
      </trkpt>
      <trkpt lat="48.63328" lon="7.2755">
        <ele>683.63</ele>
        <time>2012-06-09T11:47:24Z</time>
      </trkpt>
      <trkpt lat="48.63328" lon="7.27537">
        <ele>685.08</ele>
        <time>2012-06-09T11:47:28Z</time>
      </trkpt>
      <trkpt lat="48.63331" lon="7.27497">
        <ele>687.96</ele>
        <time>2012-06-09T11:47:38Z</time>
      </trkpt>
      <trkpt lat="48.63333" lon="7.27456">
        <ele>694.69</ele>
        <time>2012-06-09T11:47:48Z</time>
      </trkpt>
      <trkpt lat="48.63336" lon="7.27418">
        <ele>702.38</ele>
        <time>2012-06-09T11:47:57Z</time>
      </trkpt>
      <trkpt lat="48.6334" lon="7.27368">
        <ele>706.71</ele>
        <time>2012-06-09T11:48:10Z</time>
      </trkpt>
      <trkpt lat="48.6334" lon="7.27358">
        <ele>707.19</ele>
        <time>2012-06-09T11:48:13Z</time>
      </trkpt>
      <trkpt lat="48.63339" lon="7.27312">
        <ele>708.63</ele>
        <time>2012-06-09T11:48:23Z</time>
      </trkpt>
      <trkpt lat="48.63338" lon="7.2727">
        <ele>720.16</ele>
        <time>2012-06-09T11:48:36Z</time>
      </trkpt>
      <trkpt lat="48.63338" lon="7.27266">
        <ele>721.61</ele>
        <time>2012-06-09T11:48:37Z</time>
      </trkpt>
      <trkpt lat="48.63339" lon="7.27235">
        <ele>733.62</ele>
        <time>2012-06-09T11:48:47Z</time>
      </trkpt>
      <trkpt lat="48.63341" lon="7.27201">
        <ele>737.95</ele>
        <time>2012-06-09T11:48:57Z</time>
      </trkpt>
      <trkpt lat="48.63342" lon="7.27157">
        <ele>736.51</ele>
        <time>2012-06-09T11:49:10Z</time>
      </trkpt>
      <trkpt lat="48.63343" lon="7.27122">
        <ele>735.07</ele>
        <time>2012-06-09T11:49:20Z</time>
      </trkpt>
      <trkpt lat="48.63347" lon="7.27072">
        <ele>734.58</ele>
        <time>2012-06-09T11:49:34Z</time>
      </trkpt>
      <trkpt lat="48.63347" lon="7.27068">
        <ele>734.58</ele>
        <time>2012-06-09T11:49:36Z</time>
      </trkpt>
      <trkpt lat="48.63348" lon="7.27029">
        <ele>726.89</ele>
        <time>2012-06-09T11:49:48Z</time>
      </trkpt>
      <trkpt lat="48.63354" lon="7.26987">
        <ele>724.49</ele>
        <time>2012-06-09T11:49:59Z</time>
      </trkpt>
      <trkpt lat="48.63358" lon="7.26963">
        <ele>723.53</ele>
        <time>2012-06-09T11:50:05Z</time>
      </trkpt>
      <trkpt lat="48.63361" lon="7.26926">
        <ele>720.65</ele>
        <time>2012-06-09T11:50:15Z</time>
      </trkpt>
      <trkpt lat="48.63357" lon="7.26894">
        <ele>720.16</ele>
        <time>2012-06-09T11:50:26Z</time>
      </trkpt>
      <trkpt lat="48.63358" lon="7.26853">
        <ele>723.05</ele>
        <time>2012-06-09T11:50:38Z</time>
      </trkpt>
      <trkpt lat="48.6335" lon="7.26811">
        <ele>719.68</ele>
        <time>2012-06-09T11:50:50Z</time>
      </trkpt>
      <trkpt lat="48.63345" lon="7.26791">
        <ele>716.8</ele>
        <time>2012-06-09T11:50:59Z</time>
      </trkpt>
      <trkpt lat="48.63341" lon="7.26774">
        <ele>719.2</ele>
        <time>2012-06-09T11:51:11Z</time>
      </trkpt>
      <trkpt lat="48.63339" lon="7.26765">
        <ele>721.13</ele>
        <time>2012-06-09T11:51:15Z</time>
      </trkpt>
      <trkpt lat="48.63332" lon="7.26721">
        <ele>734.1</ele>
        <time>2012-06-09T11:51:28Z</time>
      </trkpt>
      <trkpt lat="48.63327" lon="7.26683">
        <ele>743.72</ele>
        <time>2012-06-09T11:51:41Z</time>
      </trkpt>
      <trkpt lat="48.6332" lon="7.26639">
        <ele>742.28</ele>
        <time>2012-06-09T11:51:53Z</time>
      </trkpt>
      <trkpt lat="48.63311" lon="7.26585">
        <ele>736.51</ele>
        <time>2012-06-09T11:52:06Z</time>
      </trkpt>
      <trkpt lat="48.63302" lon="7.26533">
        <ele>731.7</ele>
        <time>2012-06-09T11:52:19Z</time>
      </trkpt>
      <trkpt lat="48.63292" lon="7.26497">
        <ele>728.34</ele>
        <time>2012-06-09T11:52:26Z</time>
      </trkpt>
      <trkpt lat="48.63284" lon="7.26475">
        <ele>726.41</ele>
        <time>2012-06-09T11:52:30Z</time>
      </trkpt>
      <trkpt lat="48.63261" lon="7.26422">
        <ele>724.01</ele>
        <time>2012-06-09T11:52:41Z</time>
      </trkpt>
      <trkpt lat="48.63253" lon="7.26405">
        <ele>723.05</ele>
        <time>2012-06-09T11:52:44Z</time>
      </trkpt>
      <trkpt lat="48.63215" lon="7.26293">
        <ele>720.16</ele>
        <time>2012-06-09T11:52:57Z</time>
      </trkpt>
      <trkpt lat="48.63213" lon="7.26284">
        <ele>720.16</ele>
        <time>2012-06-09T11:52:58Z</time>
      </trkpt>
      <trkpt lat="48.63184" lon="7.26198">
        <ele>714.88</ele>
        <time>2012-06-09T11:53:08Z</time>
      </trkpt>
      <trkpt lat="48.63162" lon="7.2617">
        <ele>712.47</ele>
        <time>2012-06-09T11:53:13Z</time>
      </trkpt>
      <trkpt lat="48.63123" lon="7.26136">
        <ele>706.71</ele>
        <time>2012-06-09T11:53:24Z</time>
      </trkpt>
      <trkpt lat="48.63108" lon="7.26117">
        <ele>703.82</ele>
        <time>2012-06-09T11:53:33Z</time>
      </trkpt>
      <trkpt lat="48.63105" lon="7.26104">
        <ele>700.46</ele>
        <time>2012-06-09T11:53:41Z</time>
      </trkpt>
      <trkpt lat="48.63099" lon="7.26081">
        <ele>700.94</ele>
        <time>2012-06-09T11:53:51Z</time>
      </trkpt>
      <trkpt lat="48.63093" lon="7.26079">
        <ele>699.5</ele>
        <time>2012-06-09T11:54:01Z</time>
      </trkpt>
      <trkpt lat="48.63092" lon="7.26078">
        <ele>697.09</ele>
        <time>2012-06-09T11:54:11Z</time>
      </trkpt>
      <trkpt lat="48.63092" lon="7.26078">
        <ele>697.09</ele>
        <time>2012-06-09T11:54:25Z</time>
      </trkpt>
      <trkpt lat="48.63092" lon="7.26078">
        <ele>697.57</ele>
        <time>2012-06-09T11:55:00Z</time>
      </trkpt>
      <trkpt lat="48.63092" lon="7.26078">
        <ele>697.57</ele>
        <time>2012-06-09T11:55:33Z</time>
      </trkpt>
      <trkpt lat="48.63092" lon="7.26078">
        <ele>697.57</ele>
        <time>2012-06-09T11:56:11Z</time>
      </trkpt>
      <trkpt lat="48.63092" lon="7.26078">
        <ele>697.57</ele>
        <time>2012-06-09T11:56:42Z</time>
      </trkpt>
      <trkpt lat="48.63092" lon="7.26077">
        <ele>696.61</ele>
        <time>2012-06-09T11:57:17Z</time>
      </trkpt>
      <trkpt lat="48.63093" lon="7.26077">
        <ele>697.09</ele>
        <time>2012-06-09T11:57:53Z</time>
      </trkpt>
      <trkpt lat="48.63093" lon="7.26077">
        <ele>696.61</ele>
        <time>2012-06-09T11:58:31Z</time>
      </trkpt>
      <trkpt lat="48.63093" lon="7.26077">
        <ele>696.13</ele>
        <time>2012-06-09T11:59:07Z</time>
      </trkpt>
      <trkpt lat="48.63092" lon="7.26077">
        <ele>696.13</ele>
        <time>2012-06-09T11:59:49Z</time>
      </trkpt>
      <trkpt lat="48.63093" lon="7.26077">
        <ele>695.17</ele>
        <time>2012-06-09T12:00:27Z</time>
      </trkpt>
      <trkpt lat="48.63092" lon="7.26077">
        <ele>694.69</ele>
        <time>2012-06-09T12:01:00Z</time>
      </trkpt>
      <trkpt lat="48.63092" lon="7.26077">
        <ele>694.69</ele>
        <time>2012-06-09T12:01:35Z</time>
      </trkpt>
      <trkpt lat="48.63093" lon="7.26077">
        <ele>694.69</ele>
        <time>2012-06-09T12:02:13Z</time>
      </trkpt>
      <trkpt lat="48.63093" lon="7.26077">
        <ele>694.69</ele>
        <time>2012-06-09T12:02:40Z</time>
      </trkpt>
      <trkpt lat="48.63092" lon="7.26077">
        <ele>694.21</ele>
        <time>2012-06-09T12:02:57Z</time>
      </trkpt>
      <trkpt lat="48.6309" lon="7.26076">
        <ele>694.21</ele>
        <time>2012-06-09T12:03:06Z</time>
      </trkpt>
      <trkpt lat="48.63086" lon="7.26077">
        <ele>694.21</ele>
        <time>2012-06-09T12:03:08Z</time>
      </trkpt>
      <trkpt lat="48.63082" lon="7.26087">
        <ele>694.69</ele>
        <time>2012-06-09T12:03:12Z</time>
      </trkpt>
      <trkpt lat="48.63068" lon="7.26113">
        <ele>695.17</ele>
        <time>2012-06-09T12:03:19Z</time>
      </trkpt>
      <trkpt lat="48.6304" lon="7.26153">
        <ele>697.09</ele>
        <time>2012-06-09T12:03:31Z</time>
      </trkpt>
      <trkpt lat="48.63017" lon="7.2622">
        <ele>697.09</ele>
        <time>2012-06-09T12:03:45Z</time>
      </trkpt>
      <trkpt lat="48.63002" lon="7.26293">
        <ele>696.13</ele>
        <time>2012-06-09T12:03:58Z</time>
      </trkpt>
      <trkpt lat="48.63" lon="7.26308">
        <ele>695.65</ele>
        <time>2012-06-09T12:04:01Z</time>
      </trkpt>
      <trkpt lat="48.62983" lon="7.26367">
        <ele>696.13</ele>
        <time>2012-06-09T12:04:12Z</time>
      </trkpt>
      <trkpt lat="48.62972" lon="7.26398">
        <ele>695.65</ele>
        <time>2012-06-09T12:04:18Z</time>
      </trkpt>
      <trkpt lat="48.62964" lon="7.26423">
        <ele>694.69</ele>
        <time>2012-06-09T12:04:22Z</time>
      </trkpt>
      <trkpt lat="48.6295" lon="7.26452">
        <ele>694.21</ele>
        <time>2012-06-09T12:04:28Z</time>
      </trkpt>
      <trkpt lat="48.62939" lon="7.2647">
        <ele>693.25</ele>
        <time>2012-06-09T12:04:32Z</time>
      </trkpt>
      <trkpt lat="48.62902" lon="7.26505">
        <ele>693.25</ele>
        <time>2012-06-09T12:04:44Z</time>
      </trkpt>
      <trkpt lat="48.62869" lon="7.26501">
        <ele>696.13</ele>
        <time>2012-06-09T12:04:52Z</time>
      </trkpt>
      <trkpt lat="48.62841" lon="7.265">
        <ele>700.94</ele>
        <time>2012-06-09T12:04:59Z</time>
      </trkpt>
      <trkpt lat="48.62829" lon="7.26499">
        <ele>703.34</ele>
        <time>2012-06-09T12:05:02Z</time>
      </trkpt>
      <trkpt lat="48.62777" lon="7.2651">
        <ele>711.51</ele>
        <time>2012-06-09T12:05:15Z</time>
      </trkpt>
      <trkpt lat="48.62755" lon="7.26511">
        <ele>714.4</ele>
        <time>2012-06-09T12:05:21Z</time>
      </trkpt>
      <trkpt lat="48.62742" lon="7.26511">
        <ele>716.8</ele>
        <time>2012-06-09T12:05:24Z</time>
      </trkpt>
      <trkpt lat="48.6273" lon="7.26515">
        <ele>718.24</ele>
        <time>2012-06-09T12:05:27Z</time>
      </trkpt>
      <trkpt lat="48.62687" lon="7.26538">
        <ele>722.09</ele>
        <time>2012-06-09T12:05:39Z</time>
      </trkpt>
      <trkpt lat="48.62672" lon="7.26544">
        <ele>723.53</ele>
        <time>2012-06-09T12:05:42Z</time>
      </trkpt>
      <trkpt lat="48.62641" lon="7.26554">
        <ele>725.45</ele>
        <time>2012-06-09T12:05:49Z</time>
      </trkpt>
      <trkpt lat="48.6262" lon="7.2657">
        <ele>725.93</ele>
        <time>2012-06-09T12:05:54Z</time>
      </trkpt>
      <trkpt lat="48.62613" lon="7.26578">
        <ele>725.93</ele>
        <time>2012-06-09T12:05:56Z</time>
      </trkpt>
      <trkpt lat="48.626" lon="7.2661">
        <ele>727.37</ele>
        <time>2012-06-09T12:06:02Z</time>
      </trkpt>
      <trkpt lat="48.62583" lon="7.26658">
        <ele>726.41</ele>
        <time>2012-06-09T12:06:11Z</time>
      </trkpt>
      <trkpt lat="48.62577" lon="7.26691">
        <ele>722.57</ele>
        <time>2012-06-09T12:06:16Z</time>
      </trkpt>
      <trkpt lat="48.62579" lon="7.26717">
        <ele>718.24</ele>
        <time>2012-06-09T12:06:20Z</time>
      </trkpt>
      <trkpt lat="48.62567" lon="7.26781">
        <ele>712.95</ele>
        <time>2012-06-09T12:06:30Z</time>
      </trkpt>
      <trkpt lat="48.62563" lon="7.26799">
        <ele>711.03</ele>
        <time>2012-06-09T12:06:33Z</time>
      </trkpt>
      <trkpt lat="48.62564" lon="7.26821">
        <ele>708.63</ele>
        <time>2012-06-09T12:06:36Z</time>
      </trkpt>
      <trkpt lat="48.62566" lon="7.26852">
        <ele>706.71</ele>
        <time>2012-06-09T12:06:40Z</time>
      </trkpt>
      <trkpt lat="48.62566" lon="7.26913">
        <ele>704.78</ele>
        <time>2012-06-09T12:06:49Z</time>
      </trkpt>
      <trkpt lat="48.6255" lon="7.27">
        <ele>703.82</ele>
        <time>2012-06-09T12:07:02Z</time>
      </trkpt>
      <trkpt lat="48.62524" lon="7.27071">
        <ele>701.9</ele>
        <time>2012-06-09T12:07:15Z</time>
      </trkpt>
      <trkpt lat="48.62499" lon="7.27127">
        <ele>700.46</ele>
        <time>2012-06-09T12:07:25Z</time>
      </trkpt>
      <trkpt lat="48.62488" lon="7.27142">
        <ele>699.98</ele>
        <time>2012-06-09T12:07:29Z</time>
      </trkpt>
      <trkpt lat="48.62464" lon="7.27179">
        <ele>700.46</ele>
        <time>2012-06-09T12:07:37Z</time>
      </trkpt>
      <trkpt lat="48.62452" lon="7.272">
        <ele>699.02</ele>
        <time>2012-06-09T12:07:41Z</time>
      </trkpt>
      <trkpt lat="48.62442" lon="7.27214">
        <ele>699.02</ele>
        <time>2012-06-09T12:07:44Z</time>
      </trkpt>
      <trkpt lat="48.6242" lon="7.27233">
        <ele>699.02</ele>
        <time>2012-06-09T12:07:50Z</time>
      </trkpt>
      <trkpt lat="48.62398" lon="7.27225">
        <ele>700.94</ele>
        <time>2012-06-09T12:07:55Z</time>
      </trkpt>
      <trkpt lat="48.62347" lon="7.27184">
        <ele>702.86</ele>
        <time>2012-06-09T12:08:09Z</time>
      </trkpt>
      <trkpt lat="48.62314" lon="7.27157">
        <ele>706.23</ele>
        <time>2012-06-09T12:08:19Z</time>
      </trkpt>
      <trkpt lat="48.62285" lon="7.27138">
        <ele>710.55</ele>
        <time>2012-06-09T12:08:27Z</time>
      </trkpt>
      <trkpt lat="48.62273" lon="7.27132">
        <ele>712.95</ele>
        <time>2012-06-09T12:08:30Z</time>
      </trkpt>
      <trkpt lat="48.62255" lon="7.2712">
        <ele>715.84</ele>
        <time>2012-06-09T12:08:35Z</time>
      </trkpt>
      <trkpt lat="48.62225" lon="7.27099">
        <ele>722.09</ele>
        <time>2012-06-09T12:08:44Z</time>
      </trkpt>
      <trkpt lat="48.6221" lon="7.27083">
        <ele>724.97</ele>
        <time>2012-06-09T12:08:49Z</time>
      </trkpt>
      <trkpt lat="48.62174" lon="7.27039">
        <ele>731.7</ele>
        <time>2012-06-09T12:09:01Z</time>
      </trkpt>
      <trkpt lat="48.62169" lon="7.2703">
        <ele>733.14</ele>
        <time>2012-06-09T12:09:03Z</time>
      </trkpt>
      <trkpt lat="48.62139" lon="7.26949">
        <ele>732.18</ele>
        <time>2012-06-09T12:09:16Z</time>
      </trkpt>
      <trkpt lat="48.62137" lon="7.26942">
        <ele>731.22</ele>
        <time>2012-06-09T12:09:17Z</time>
      </trkpt>
      <trkpt lat="48.62126" lon="7.26885">
        <ele>726.89</ele>
        <time>2012-06-09T12:09:27Z</time>
      </trkpt>
      <trkpt lat="48.62122" lon="7.26873">
        <ele>726.41</ele>
        <time>2012-06-09T12:09:29Z</time>
      </trkpt>
      <trkpt lat="48.62113" lon="7.26836">
        <ele>725.45</ele>
        <time>2012-06-09T12:09:35Z</time>
      </trkpt>
      <trkpt lat="48.62084" lon="7.26766">
        <ele>725.45</ele>
        <time>2012-06-09T12:09:47Z</time>
      </trkpt>
      <trkpt lat="48.62082" lon="7.2676">
        <ele>725.45</ele>
        <time>2012-06-09T12:09:48Z</time>
      </trkpt>
      <trkpt lat="48.62058" lon="7.26723">
        <ele>726.41</ele>
        <time>2012-06-09T12:09:55Z</time>
      </trkpt>
      <trkpt lat="48.62047" lon="7.26707">
        <ele>726.89</ele>
        <time>2012-06-09T12:09:58Z</time>
      </trkpt>
      <trkpt lat="48.6202" lon="7.26681">
        <ele>730.26</ele>
        <time>2012-06-09T12:10:05Z</time>
      </trkpt>
      <trkpt lat="48.62" lon="7.26673">
        <ele>732.66</ele>
        <time>2012-06-09T12:10:09Z</time>
      </trkpt>
      <trkpt lat="48.61964" lon="7.2666">
        <ele>728.34</ele>
        <time>2012-06-09T12:10:15Z</time>
      </trkpt>
      <trkpt lat="48.61942" lon="7.26645">
        <ele>724.97</ele>
        <time>2012-06-09T12:10:20Z</time>
      </trkpt>
      <trkpt lat="48.61911" lon="7.26614">
        <ele>722.57</ele>
        <time>2012-06-09T12:10:28Z</time>
      </trkpt>
      <trkpt lat="48.61876" lon="7.26568">
        <ele>721.13</ele>
        <time>2012-06-09T12:10:38Z</time>
      </trkpt>
      <trkpt lat="48.61858" lon="7.26534">
        <ele>721.61</ele>
        <time>2012-06-09T12:10:45Z</time>
      </trkpt>
      <trkpt lat="48.61845" lon="7.26518">
        <ele>722.57</ele>
        <time>2012-06-09T12:10:49Z</time>
      </trkpt>
      <trkpt lat="48.61829" lon="7.26493">
        <ele>724.01</ele>
        <time>2012-06-09T12:10:55Z</time>
      </trkpt>
      <trkpt lat="48.61807" lon="7.26459">
        <ele>728.82</ele>
        <time>2012-06-09T12:11:06Z</time>
      </trkpt>
      <trkpt lat="48.61796" lon="7.26439">
        <ele>735.07</ele>
        <time>2012-06-09T12:11:13Z</time>
      </trkpt>
      <trkpt lat="48.61774" lon="7.264">
        <ele>748.04</ele>
        <time>2012-06-09T12:11:24Z</time>
      </trkpt>
      <trkpt lat="48.61762" lon="7.26366">
        <ele>758.62</ele>
        <time>2012-06-09T12:11:34Z</time>
      </trkpt>
      <trkpt lat="48.61755" lon="7.26356">
        <ele>763.9</ele>
        <time>2012-06-09T12:11:39Z</time>
      </trkpt>
      <trkpt lat="48.61749" lon="7.26342">
        <ele>768.71</ele>
        <time>2012-06-09T12:11:44Z</time>
      </trkpt>
      <trkpt lat="48.61744" lon="7.26331">
        <ele>771.11</ele>
        <time>2012-06-09T12:11:48Z</time>
      </trkpt>
      <trkpt lat="48.61728" lon="7.26285">
        <ele>774</ele>
        <time>2012-06-09T12:12:00Z</time>
      </trkpt>
      <trkpt lat="48.61719" lon="7.26256">
        <ele>774.96</ele>
        <time>2012-06-09T12:12:10Z</time>
      </trkpt>
      <trkpt lat="48.61714" lon="7.26237">
        <ele>778.32</ele>
        <time>2012-06-09T12:12:20Z</time>
      </trkpt>
      <trkpt lat="48.61712" lon="7.26232">
        <ele>781.21</ele>
        <time>2012-06-09T12:12:23Z</time>
      </trkpt>
      <trkpt lat="48.61712" lon="7.26228">
        <ele>782.65</ele>
        <time>2012-06-09T12:12:25Z</time>
      </trkpt>
      <trkpt lat="48.61711" lon="7.2622">
        <ele>784.09</ele>
        <time>2012-06-09T12:12:28Z</time>
      </trkpt>
      <trkpt lat="48.61697" lon="7.26165">
        <ele>787.46</ele>
        <time>2012-06-09T12:12:45Z</time>
      </trkpt>
      <trkpt lat="48.61691" lon="7.26138">
        <ele>780.73</ele>
        <time>2012-06-09T12:12:54Z</time>
      </trkpt>
      <trkpt lat="48.61687" lon="7.26125">
        <ele>777.36</ele>
        <time>2012-06-09T12:13:00Z</time>
      </trkpt>
      <trkpt lat="48.61675" lon="7.26088">
        <ele>771.11</ele>
        <time>2012-06-09T12:13:14Z</time>
      </trkpt>
      <trkpt lat="48.6166" lon="7.26058">
        <ele>771.11</ele>
        <time>2012-06-09T12:13:26Z</time>
      </trkpt>
      <trkpt lat="48.61644" lon="7.26031">
        <ele>769.19</ele>
        <time>2012-06-09T12:13:38Z</time>
      </trkpt>
      <trkpt lat="48.61631" lon="7.26017">
        <ele>768.71</ele>
        <time>2012-06-09T12:13:46Z</time>
      </trkpt>
      <trkpt lat="48.61626" lon="7.26009">
        <ele>767.75</ele>
        <time>2012-06-09T12:13:50Z</time>
      </trkpt>
      <trkpt lat="48.61604" lon="7.25988">
        <ele>765.35</ele>
        <time>2012-06-09T12:14:04Z</time>
      </trkpt>
      <trkpt lat="48.61587" lon="7.25968">
        <ele>759.58</ele>
        <time>2012-06-09T12:14:15Z</time>
      </trkpt>
      <trkpt lat="48.61583" lon="7.25964">
        <ele>758.14</ele>
        <time>2012-06-09T12:14:18Z</time>
      </trkpt>
      <trkpt lat="48.6157" lon="7.2595">
        <ele>757.18</ele>
        <time>2012-06-09T12:14:25Z</time>
      </trkpt>
      <trkpt lat="48.61559" lon="7.2594">
        <ele>755.25</ele>
        <time>2012-06-09T12:14:31Z</time>
      </trkpt>
      <trkpt lat="48.61553" lon="7.25935">
        <ele>754.77</ele>
        <time>2012-06-09T12:14:34Z</time>
      </trkpt>
      <trkpt lat="48.6154" lon="7.25923">
        <ele>753.33</ele>
        <time>2012-06-09T12:14:41Z</time>
      </trkpt>
      <trkpt lat="48.61527" lon="7.25908">
        <ele>752.37</ele>
        <time>2012-06-09T12:14:50Z</time>
      </trkpt>
      <trkpt lat="48.61515" lon="7.25898">
        <ele>752.85</ele>
        <time>2012-06-09T12:14:59Z</time>
      </trkpt>
      <trkpt lat="48.61483" lon="7.25887">
        <ele>754.29</ele>
        <time>2012-06-09T12:15:10Z</time>
      </trkpt>
      <trkpt lat="48.61481" lon="7.25885">
        <ele>754.29</ele>
        <time>2012-06-09T12:15:11Z</time>
      </trkpt>
      <trkpt lat="48.61467" lon="7.25878">
        <ele>754.29</ele>
        <time>2012-06-09T12:15:16Z</time>
      </trkpt>
      <trkpt lat="48.61456" lon="7.25865">
        <ele>750.45</ele>
        <time>2012-06-09T12:15:22Z</time>
      </trkpt>
      <trkpt lat="48.6145" lon="7.25834">
        <ele>748.04</ele>
        <time>2012-06-09T12:15:34Z</time>
      </trkpt>
      <trkpt lat="48.61437" lon="7.25814">
        <ele>747.08</ele>
        <time>2012-06-09T12:15:44Z</time>
      </trkpt>
      <trkpt lat="48.61424" lon="7.25813">
        <ele>745.16</ele>
        <time>2012-06-09T12:15:50Z</time>
      </trkpt>
      <trkpt lat="48.6139" lon="7.25808">
        <ele>746.12</ele>
        <time>2012-06-09T12:16:01Z</time>
      </trkpt>
      <trkpt lat="48.61355" lon="7.25796">
        <ele>746.12</ele>
        <time>2012-06-09T12:16:13Z</time>
      </trkpt>
      <trkpt lat="48.6135" lon="7.25795">
        <ele>746.12</ele>
        <time>2012-06-09T12:16:15Z</time>
      </trkpt>
      <trkpt lat="48.61341" lon="7.25791">
        <ele>746.12</ele>
        <time>2012-06-09T12:16:20Z</time>
      </trkpt>
      <trkpt lat="48.6132" lon="7.25792">
        <ele>747.08</ele>
        <time>2012-06-09T12:16:32Z</time>
      </trkpt>
      <trkpt lat="48.61311" lon="7.2579">
        <ele>747.56</ele>
        <time>2012-06-09T12:16:37Z</time>
      </trkpt>
      <trkpt lat="48.61292" lon="7.25786">
        <ele>748.04</ele>
        <time>2012-06-09T12:16:47Z</time>
      </trkpt>
      <trkpt lat="48.61271" lon="7.25783">
        <ele>749.97</ele>
        <time>2012-06-09T12:17:00Z</time>
      </trkpt>
      <trkpt lat="48.61258" lon="7.2578">
        <ele>752.37</ele>
        <time>2012-06-09T12:17:09Z</time>
      </trkpt>
      <trkpt lat="48.61244" lon="7.25776">
        <ele>756.69</ele>
        <time>2012-06-09T12:17:18Z</time>
      </trkpt>
      <trkpt lat="48.61235" lon="7.25774">
        <ele>758.14</ele>
        <time>2012-06-09T12:17:23Z</time>
      </trkpt>
      <trkpt lat="48.61212" lon="7.25773">
        <ele>760.06</ele>
        <time>2012-06-09T12:17:37Z</time>
      </trkpt>
      <trkpt lat="48.61202" lon="7.25775">
        <ele>761.5</ele>
        <time>2012-06-09T12:17:43Z</time>
      </trkpt>
      <trkpt lat="48.61189" lon="7.25774">
        <ele>761.02</ele>
        <time>2012-06-09T12:17:50Z</time>
      </trkpt>
      <trkpt lat="48.61174" lon="7.25772">
        <ele>763.42</ele>
        <time>2012-06-09T12:17:59Z</time>
      </trkpt>
      <trkpt lat="48.61169" lon="7.2577">
        <ele>764.87</ele>
        <time>2012-06-09T12:18:02Z</time>
      </trkpt>
      <trkpt lat="48.61157" lon="7.25771">
        <ele>765.83</ele>
        <time>2012-06-09T12:18:09Z</time>
      </trkpt>
      <trkpt lat="48.61137" lon="7.25766">
        <ele>768.23</ele>
        <time>2012-06-09T12:18:21Z</time>
      </trkpt>
      <trkpt lat="48.6113" lon="7.25764">
        <ele>770.15</ele>
        <time>2012-06-09T12:18:26Z</time>
      </trkpt>
      <trkpt lat="48.61112" lon="7.25762">
        <ele>772.08</ele>
        <time>2012-06-09T12:18:37Z</time>
      </trkpt>
      <trkpt lat="48.611" lon="7.25758">
        <ele>772.56</ele>
        <time>2012-06-09T12:18:44Z</time>
      </trkpt>
      <trkpt lat="48.61077" lon="7.25751">
        <ele>772.56</ele>
        <time>2012-06-09T12:18:57Z</time>
      </trkpt>
      <trkpt lat="48.61052" lon="7.25741">
        <ele>774.96</ele>
        <time>2012-06-09T12:19:11Z</time>
      </trkpt>
      <trkpt lat="48.61049" lon="7.2574">
        <ele>775.92</ele>
        <time>2012-06-09T12:19:13Z</time>
      </trkpt>
      <trkpt lat="48.61042" lon="7.25736">
        <ele>776.88</ele>
        <time>2012-06-09T12:19:18Z</time>
      </trkpt>
      <trkpt lat="48.61033" lon="7.25729">
        <ele>777.36</ele>
        <time>2012-06-09T12:19:24Z</time>
      </trkpt>
      <trkpt lat="48.61004" lon="7.25717">
        <ele>776.88</ele>
        <time>2012-06-09T12:19:38Z</time>
      </trkpt>
      <trkpt lat="48.6097" lon="7.2571">
        <ele>773.04</ele>
        <time>2012-06-09T12:19:53Z</time>
      </trkpt>
      <trkpt lat="48.60945" lon="7.25707">
        <ele>771.6</ele>
        <time>2012-06-09T12:20:02Z</time>
      </trkpt>
      <trkpt lat="48.6093" lon="7.25702">
        <ele>772.08</ele>
        <time>2012-06-09T12:20:09Z</time>
      </trkpt>
      <trkpt lat="48.60897" lon="7.25702">
        <ele>775.92</ele>
        <time>2012-06-09T12:20:23Z</time>
      </trkpt>
      <trkpt lat="48.60895" lon="7.25703">
        <ele>776.4</ele>
        <time>2012-06-09T12:20:24Z</time>
      </trkpt>
      <trkpt lat="48.60867" lon="7.25701">
        <ele>780.73</ele>
        <time>2012-06-09T12:20:36Z</time>
      </trkpt>
      <trkpt lat="48.60835" lon="7.257">
        <ele>786.5</ele>
        <time>2012-06-09T12:20:49Z</time>
      </trkpt>
      <trkpt lat="48.60813" lon="7.25697">
        <ele>790.82</ele>
        <time>2012-06-09T12:20:59Z</time>
      </trkpt>
      <trkpt lat="48.60786" lon="7.25695">
        <ele>791.78</ele>
        <time>2012-06-09T12:21:10Z</time>
      </trkpt>
      <trkpt lat="48.60756" lon="7.25697">
        <ele>790.82</ele>
        <time>2012-06-09T12:21:23Z</time>
      </trkpt>
      <trkpt lat="48.60755" lon="7.25696">
        <ele>790.82</ele>
        <time>2012-06-09T12:21:37Z</time>
      </trkpt>
      <trkpt lat="48.60755" lon="7.25696">
        <ele>790.82</ele>
        <time>2012-06-09T12:21:41Z</time>
      </trkpt>
      <trkpt lat="48.60731" lon="7.25695">
        <ele>795.63</ele>
        <time>2012-06-09T12:21:53Z</time>
      </trkpt>
      <trkpt lat="48.60719" lon="7.25697">
        <ele>796.59</ele>
        <time>2012-06-09T12:21:59Z</time>
      </trkpt>
      <trkpt lat="48.60705" lon="7.25698">
        <ele>798.03</ele>
        <time>2012-06-09T12:22:06Z</time>
      </trkpt>
      <trkpt lat="48.60676" lon="7.25692">
        <ele>799.47</ele>
        <time>2012-06-09T12:22:20Z</time>
      </trkpt>
      <trkpt lat="48.60653" lon="7.25682">
        <ele>799.47</ele>
        <time>2012-06-09T12:22:31Z</time>
      </trkpt>
      <trkpt lat="48.60621" lon="7.25665">
        <ele>800.92</ele>
        <time>2012-06-09T12:22:46Z</time>
      </trkpt>
      <trkpt lat="48.60592" lon="7.2564">
        <ele>799.95</ele>
        <time>2012-06-09T12:23:00Z</time>
      </trkpt>
      <trkpt lat="48.60563" lon="7.25623">
        <ele>798.51</ele>
        <time>2012-06-09T12:23:14Z</time>
      </trkpt>
      <trkpt lat="48.6054" lon="7.25607">
        <ele>800.44</ele>
        <time>2012-06-09T12:23:26Z</time>
      </trkpt>
      <trkpt lat="48.60511" lon="7.25585">
        <ele>801.4</ele>
        <time>2012-06-09T12:23:37Z</time>
      </trkpt>
      <trkpt lat="48.60502" lon="7.25574">
        <ele>801.88</ele>
        <time>2012-06-09T12:23:41Z</time>
      </trkpt>
      <trkpt lat="48.60485" lon="7.25561">
        <ele>804.28</ele>
        <time>2012-06-09T12:23:51Z</time>
      </trkpt>
      <trkpt lat="48.60475" lon="7.25549">
        <ele>805.24</ele>
        <time>2012-06-09T12:23:57Z</time>
      </trkpt>
      <trkpt lat="48.60466" lon="7.25542">
        <ele>804.76</ele>
        <time>2012-06-09T12:24:02Z</time>
      </trkpt>
      <trkpt lat="48.60436" lon="7.25519">
        <ele>806.68</ele>
        <time>2012-06-09T12:24:16Z</time>
      </trkpt>
      <trkpt lat="48.60403" lon="7.25504">
        <ele>808.13</ele>
        <time>2012-06-09T12:24:29Z</time>
      </trkpt>
      <trkpt lat="48.60379" lon="7.25492">
        <ele>810.53</ele>
        <time>2012-06-09T12:24:40Z</time>
      </trkpt>
      <trkpt lat="48.60349" lon="7.25479">
        <ele>810.53</ele>
        <time>2012-06-09T12:24:52Z</time>
      </trkpt>
      <trkpt lat="48.60337" lon="7.25471">
        <ele>810.05</ele>
        <time>2012-06-09T12:24:58Z</time>
      </trkpt>
      <trkpt lat="48.60331" lon="7.25479">
        <ele>809.57</ele>
        <time>2012-06-09T12:25:07Z</time>
      </trkpt>
      <trkpt lat="48.60333" lon="7.25479">
        <ele>809.57</ele>
        <time>2012-06-09T12:25:10Z</time>
      </trkpt>
      <trkpt lat="48.60329" lon="7.25471">
        <ele>808.61</ele>
        <time>2012-06-09T12:25:20Z</time>
      </trkpt>
      <trkpt lat="48.60327" lon="7.25467">
        <ele>808.13</ele>
        <time>2012-06-09T12:25:23Z</time>
      </trkpt>
      <trkpt lat="48.60323" lon="7.25471">
        <ele>806.2</ele>
        <time>2012-06-09T12:25:33Z</time>
      </trkpt>
      <trkpt lat="48.60324" lon="7.25473">
        <ele>805.72</ele>
        <time>2012-06-09T12:25:44Z</time>
      </trkpt>
      <trkpt lat="48.60325" lon="7.25475">
        <ele>805.72</ele>
        <time>2012-06-09T12:25:54Z</time>
      </trkpt>
      <trkpt lat="48.60325" lon="7.25475">
        <ele>805.72</ele>
        <time>2012-06-09T12:26:12Z</time>
      </trkpt>
      <trkpt lat="48.60325" lon="7.25475">
        <ele>805.72</ele>
        <time>2012-06-09T12:26:36Z</time>
      </trkpt>
      <trkpt lat="48.60325" lon="7.25475">
        <ele>806.2</ele>
        <time>2012-06-09T12:26:58Z</time>
      </trkpt>
      <trkpt lat="48.60324" lon="7.25475">
        <ele>806.2</ele>
        <time>2012-06-09T12:27:07Z</time>
      </trkpt>
      <trkpt lat="48.60324" lon="7.25475">
        <ele>805.24</ele>
        <time>2012-06-09T12:27:08Z</time>
      </trkpt>
      <trkpt lat="48.60297" lon="7.25501">
        <ele>803.32</ele>
        <time>2012-06-09T12:27:20Z</time>
      </trkpt>
      <trkpt lat="48.60289" lon="7.25506">
        <ele>803.32</ele>
        <time>2012-06-09T12:27:22Z</time>
      </trkpt>
      <trkpt lat="48.60236" lon="7.25515">
        <ele>802.84</ele>
        <time>2012-06-09T12:27:31Z</time>
      </trkpt>
      <trkpt lat="48.60174" lon="7.2549">
        <ele>801.88</ele>
        <time>2012-06-09T12:27:39Z</time>
      </trkpt>
      <trkpt lat="48.60042" lon="7.25464">
        <ele>799.95</ele>
        <time>2012-06-09T12:27:52Z</time>
      </trkpt>
      <trkpt lat="48.59969" lon="7.25483">
        <ele>799.47</ele>
        <time>2012-06-09T12:27:59Z</time>
      </trkpt>
      <trkpt lat="48.59872" lon="7.25534">
        <ele>799.47</ele>
        <time>2012-06-09T12:28:08Z</time>
      </trkpt>
      <trkpt lat="48.59789" lon="7.25596">
        <ele>800.92</ele>
        <time>2012-06-09T12:28:18Z</time>
      </trkpt>
      <trkpt lat="48.59744" lon="7.25629">
        <ele>801.88</ele>
        <time>2012-06-09T12:28:25Z</time>
      </trkpt>
      <trkpt lat="48.59724" lon="7.25639">
        <ele>801.88</ele>
        <time>2012-06-09T12:28:28Z</time>
      </trkpt>
      <trkpt lat="48.59708" lon="7.25685">
        <ele>798.03</ele>
        <time>2012-06-09T12:28:35Z</time>
      </trkpt>
      <trkpt lat="48.59737" lon="7.257">
        <ele>793.22</ele>
        <time>2012-06-09T12:28:40Z</time>
      </trkpt>
      <trkpt lat="48.59786" lon="7.25697">
        <ele>787.94</ele>
        <time>2012-06-09T12:28:47Z</time>
      </trkpt>
      <trkpt lat="48.59805" lon="7.25701">
        <ele>786.02</ele>
        <time>2012-06-09T12:28:50Z</time>
      </trkpt>
      <trkpt lat="48.59832" lon="7.25702">
        <ele>783.13</ele>
        <time>2012-06-09T12:28:54Z</time>
      </trkpt>
      <trkpt lat="48.59917" lon="7.25675">
        <ele>776.88</ele>
        <time>2012-06-09T12:29:05Z</time>
      </trkpt>
      <trkpt lat="48.59926" lon="7.25672">
        <ele>776.4</ele>
        <time>2012-06-09T12:29:06Z</time>
      </trkpt>
      <trkpt lat="48.60006" lon="7.25693">
        <ele>772.08</ele>
        <time>2012-06-09T12:29:15Z</time>
      </trkpt>
      <trkpt lat="48.60037" lon="7.2571">
        <ele>770.15</ele>
        <time>2012-06-09T12:29:19Z</time>
      </trkpt>
      <trkpt lat="48.60062" lon="7.25723">
        <ele>769.19</ele>
        <time>2012-06-09T12:29:22Z</time>
      </trkpt>
      <trkpt lat="48.60085" lon="7.25742">
        <ele>768.23</ele>
        <time>2012-06-09T12:29:25Z</time>
      </trkpt>
      <trkpt lat="48.60172" lon="7.25838">
        <ele>764.39</ele>
        <time>2012-06-09T12:29:35Z</time>
      </trkpt>
      <trkpt lat="48.60244" lon="7.25975">
        <ele>757.18</ele>
        <time>2012-06-09T12:29:44Z</time>
      </trkpt>
      <trkpt lat="48.6026" lon="7.26028">
        <ele>754.77</ele>
        <time>2012-06-09T12:29:47Z</time>
      </trkpt>
      <trkpt lat="48.60334" lon="7.26211">
        <ele>744.2</ele>
        <time>2012-06-09T12:29:59Z</time>
      </trkpt>
      <trkpt lat="48.60343" lon="7.26238">
        <ele>742.28</ele>
        <time>2012-06-09T12:30:01Z</time>
      </trkpt>
      <trkpt lat="48.60349" lon="7.26285">
        <ele>737.95</ele>
        <time>2012-06-09T12:30:05Z</time>
      </trkpt>
      <trkpt lat="48.60347" lon="7.26306">
        <ele>736.03</ele>
        <time>2012-06-09T12:30:07Z</time>
      </trkpt>
      <trkpt lat="48.60327" lon="7.26358">
        <ele>733.62</ele>
        <time>2012-06-09T12:30:12Z</time>
      </trkpt>
      <trkpt lat="48.60309" lon="7.26404">
        <ele>732.66</ele>
        <time>2012-06-09T12:30:18Z</time>
      </trkpt>
      <trkpt lat="48.60311" lon="7.26415">
        <ele>731.7</ele>
        <time>2012-06-09T12:30:22Z</time>
      </trkpt>
      <trkpt lat="48.60317" lon="7.26426">
        <ele>730.26</ele>
        <time>2012-06-09T12:30:26Z</time>
      </trkpt>
      <trkpt lat="48.60325" lon="7.2643">
        <ele>728.82</ele>
        <time>2012-06-09T12:30:28Z</time>
      </trkpt>
      <trkpt lat="48.60342" lon="7.26439">
        <ele>725.93</ele>
        <time>2012-06-09T12:30:32Z</time>
      </trkpt>
      <trkpt lat="48.60372" lon="7.26436">
        <ele>722.09</ele>
        <time>2012-06-09T12:30:45Z</time>
      </trkpt>
      <trkpt lat="48.6041" lon="7.26452">
        <ele>723.53</ele>
        <time>2012-06-09T12:30:57Z</time>
      </trkpt>
      <trkpt lat="48.60445" lon="7.26475">
        <ele>726.89</ele>
        <time>2012-06-09T12:31:10Z</time>
      </trkpt>
      <trkpt lat="48.60489" lon="7.265">
        <ele>732.66</ele>
        <time>2012-06-09T12:31:22Z</time>
      </trkpt>
      <trkpt lat="48.60534" lon="7.26536">
        <ele>741.79</ele>
        <time>2012-06-09T12:31:35Z</time>
      </trkpt>
      <trkpt lat="48.60558" lon="7.26561">
        <ele>747.56</ele>
        <time>2012-06-09T12:31:44Z</time>
      </trkpt>
      <trkpt lat="48.60582" lon="7.26603">
        <ele>750.93</ele>
        <time>2012-06-09T12:31:56Z</time>
      </trkpt>
      <trkpt lat="48.60601" lon="7.26653">
        <ele>756.69</ele>
        <time>2012-06-09T12:32:08Z</time>
      </trkpt>
      <trkpt lat="48.60613" lon="7.26682">
        <ele>761.98</ele>
        <time>2012-06-09T12:32:17Z</time>
      </trkpt>
      <trkpt lat="48.60621" lon="7.26727">
        <ele>768.71</ele>
        <time>2012-06-09T12:32:29Z</time>
      </trkpt>
      <trkpt lat="48.60623" lon="7.2679">
        <ele>767.27</ele>
        <time>2012-06-09T12:32:42Z</time>
      </trkpt>
      <trkpt lat="48.60617" lon="7.26838">
        <ele>762.46</ele>
        <time>2012-06-09T12:32:53Z</time>
      </trkpt>
      <trkpt lat="48.606" lon="7.26882">
        <ele>760.06</ele>
        <time>2012-06-09T12:33:06Z</time>
      </trkpt>
      <trkpt lat="48.60576" lon="7.26923">
        <ele>763.9</ele>
        <time>2012-06-09T12:33:18Z</time>
      </trkpt>
      <trkpt lat="48.6055" lon="7.26961">
        <ele>767.75</ele>
        <time>2012-06-09T12:33:30Z</time>
      </trkpt>
      <trkpt lat="48.60495" lon="7.27019">
        <ele>767.75</ele>
        <time>2012-06-09T12:33:46Z</time>
      </trkpt>
      <trkpt lat="48.60455" lon="7.27042">
        <ele>768.23</ele>
        <time>2012-06-09T12:33:58Z</time>
      </trkpt>
      <trkpt lat="48.60418" lon="7.27067">
        <ele>771.6</ele>
        <time>2012-06-09T12:34:10Z</time>
      </trkpt>
      <trkpt lat="48.60379" lon="7.27086">
        <ele>775.92</ele>
        <time>2012-06-09T12:34:23Z</time>
      </trkpt>
      <trkpt lat="48.60335" lon="7.27117">
        <ele>780.73</ele>
        <time>2012-06-09T12:34:37Z</time>
      </trkpt>
      <trkpt lat="48.603" lon="7.27141">
        <ele>780.73</ele>
        <time>2012-06-09T12:34:50Z</time>
      </trkpt>
      <trkpt lat="48.60267" lon="7.27188">
        <ele>779.77</ele>
        <time>2012-06-09T12:35:04Z</time>
      </trkpt>
      <trkpt lat="48.6026" lon="7.27197">
        <ele>780.25</ele>
        <time>2012-06-09T12:35:06Z</time>
      </trkpt>
      <trkpt lat="48.60231" lon="7.27238">
        <ele>781.69</ele>
        <time>2012-06-09T12:35:18Z</time>
      </trkpt>
      <trkpt lat="48.60211" lon="7.27295">
        <ele>784.57</ele>
        <time>2012-06-09T12:35:31Z</time>
      </trkpt>
      <trkpt lat="48.60209" lon="7.27307">
        <ele>784.09</ele>
        <time>2012-06-09T12:35:34Z</time>
      </trkpt>
      <trkpt lat="48.60206" lon="7.27365">
        <ele>782.65</ele>
        <time>2012-06-09T12:35:44Z</time>
      </trkpt>
      <trkpt lat="48.60199" lon="7.27411">
        <ele>779.29</ele>
        <time>2012-06-09T12:35:53Z</time>
      </trkpt>
      <trkpt lat="48.60181" lon="7.27463">
        <ele>779.29</ele>
        <time>2012-06-09T12:36:05Z</time>
      </trkpt>
      <trkpt lat="48.60177" lon="7.27525">
        <ele>779.77</ele>
        <time>2012-06-09T12:36:15Z</time>
      </trkpt>
      <trkpt lat="48.60178" lon="7.27595">
        <ele>776.4</ele>
        <time>2012-06-09T12:36:28Z</time>
      </trkpt>
      <trkpt lat="48.60185" lon="7.27675">
        <ele>770.15</ele>
        <time>2012-06-09T12:36:42Z</time>
      </trkpt>
      <trkpt lat="48.60197" lon="7.27715">
        <ele>766.31</ele>
        <time>2012-06-09T12:36:52Z</time>
      </trkpt>
      <trkpt lat="48.60216" lon="7.27756">
        <ele>766.79</ele>
        <time>2012-06-09T12:37:03Z</time>
      </trkpt>
      <trkpt lat="48.60232" lon="7.27778">
        <ele>768.71</ele>
        <time>2012-06-09T12:37:11Z</time>
      </trkpt>
      <trkpt lat="48.60245" lon="7.27788">
        <ele>770.63</ele>
        <time>2012-06-09T12:37:18Z</time>
      </trkpt>
      <trkpt lat="48.60259" lon="7.27797">
        <ele>771.11</ele>
        <time>2012-06-09T12:37:28Z</time>
      </trkpt>
      <trkpt lat="48.60271" lon="7.27796">
        <ele>774</ele>
        <time>2012-06-09T12:37:39Z</time>
      </trkpt>
      <trkpt lat="48.60295" lon="7.27772">
        <ele>782.65</ele>
        <time>2012-06-09T12:37:52Z</time>
      </trkpt>
      <trkpt lat="48.60295" lon="7.27769">
        <ele>784.09</ele>
        <time>2012-06-09T12:38:04Z</time>
      </trkpt>
      <trkpt lat="48.60295" lon="7.27769">
        <ele>784.09</ele>
        <time>2012-06-09T12:38:35Z</time>
      </trkpt>
      <trkpt lat="48.60296" lon="7.27767">
        <ele>785.05</ele>
        <time>2012-06-09T12:39:04Z</time>
      </trkpt>
      <trkpt lat="48.60299" lon="7.27761">
        <ele>786.02</ele>
        <time>2012-06-09T12:39:19Z</time>
      </trkpt>
      <trkpt lat="48.6031" lon="7.2775">
        <ele>786.5</ele>
        <time>2012-06-09T12:39:27Z</time>
      </trkpt>
      <trkpt lat="48.60332" lon="7.27713">
        <ele>792.26</ele>
        <time>2012-06-09T12:39:40Z</time>
      </trkpt>
      <trkpt lat="48.60354" lon="7.27688">
        <ele>795.63</ele>
        <time>2012-06-09T12:39:51Z</time>
      </trkpt>
      <trkpt lat="48.60359" lon="7.2768">
        <ele>796.11</ele>
        <time>2012-06-09T12:39:53Z</time>
      </trkpt>
      <trkpt lat="48.60396" lon="7.27647">
        <ele>793.71</ele>
        <time>2012-06-09T12:40:03Z</time>
      </trkpt>
      <trkpt lat="48.604" lon="7.27642">
        <ele>793.71</ele>
        <time>2012-06-09T12:40:04Z</time>
      </trkpt>
      <trkpt lat="48.60425" lon="7.27617">
        <ele>792.26</ele>
        <time>2012-06-09T12:40:11Z</time>
      </trkpt>
      <trkpt lat="48.60442" lon="7.276">
        <ele>791.78</ele>
        <time>2012-06-09T12:40:15Z</time>
      </trkpt>
      <trkpt lat="48.60458" lon="7.27584">
        <ele>791.3</ele>
        <time>2012-06-09T12:40:19Z</time>
      </trkpt>
      <trkpt lat="48.60475" lon="7.27577">
        <ele>790.82</ele>
        <time>2012-06-09T12:40:22Z</time>
      </trkpt>
      <trkpt lat="48.60509" lon="7.27565">
        <ele>788.42</ele>
        <time>2012-06-09T12:40:29Z</time>
      </trkpt>
      <trkpt lat="48.60527" lon="7.2756">
        <ele>786.02</ele>
        <time>2012-06-09T12:40:33Z</time>
      </trkpt>
      <trkpt lat="48.60573" lon="7.27555">
        <ele>786.98</ele>
        <time>2012-06-09T12:40:43Z</time>
      </trkpt>
      <trkpt lat="48.60614" lon="7.27548">
        <ele>791.78</ele>
        <time>2012-06-09T12:40:53Z</time>
      </trkpt>
      <trkpt lat="48.60648" lon="7.27542">
        <ele>796.59</ele>
        <time>2012-06-09T12:41:02Z</time>
      </trkpt>
      <trkpt lat="48.60665" lon="7.27534">
        <ele>798.51</ele>
        <time>2012-06-09T12:41:06Z</time>
      </trkpt>
      <trkpt lat="48.60681" lon="7.27531">
        <ele>800.92</ele>
        <time>2012-06-09T12:41:10Z</time>
      </trkpt>
      <trkpt lat="48.60694" lon="7.27528">
        <ele>802.36</ele>
        <time>2012-06-09T12:41:13Z</time>
      </trkpt>
      <trkpt lat="48.60704" lon="7.27528">
        <ele>802.84</ele>
        <time>2012-06-09T12:41:15Z</time>
      </trkpt>
      <trkpt lat="48.60728" lon="7.27537">
        <ele>802.84</ele>
        <time>2012-06-09T12:41:20Z</time>
      </trkpt>
      <trkpt lat="48.60758" lon="7.27557">
        <ele>799.95</ele>
        <time>2012-06-09T12:41:26Z</time>
      </trkpt>
      <trkpt lat="48.60771" lon="7.27572">
        <ele>799.47</ele>
        <time>2012-06-09T12:41:29Z</time>
      </trkpt>
      <trkpt lat="48.6084" lon="7.27621">
        <ele>794.19</ele>
        <time>2012-06-09T12:41:41Z</time>
      </trkpt>
      <trkpt lat="48.60894" lon="7.2764">
        <ele>790.34</ele>
        <time>2012-06-09T12:41:50Z</time>
      </trkpt>
      <trkpt lat="48.60916" lon="7.27644">
        <ele>788.42</ele>
        <time>2012-06-09T12:41:54Z</time>
      </trkpt>
      <trkpt lat="48.60933" lon="7.27648">
        <ele>786.5</ele>
        <time>2012-06-09T12:41:58Z</time>
      </trkpt>
      <trkpt lat="48.61014" lon="7.27645">
        <ele>780.73</ele>
        <time>2012-06-09T12:42:16Z</time>
      </trkpt>
      <trkpt lat="48.61038" lon="7.27641">
        <ele>778.81</ele>
        <time>2012-06-09T12:42:21Z</time>
      </trkpt>
      <trkpt lat="48.61118" lon="7.27646">
        <ele>776.4</ele>
        <time>2012-06-09T12:42:34Z</time>
      </trkpt>
      <trkpt lat="48.61141" lon="7.27651">
        <ele>774.96</ele>
        <time>2012-06-09T12:42:37Z</time>
      </trkpt>
      <trkpt lat="48.61238" lon="7.27636">
        <ele>771.11</ele>
        <time>2012-06-09T12:42:49Z</time>
      </trkpt>
      <trkpt lat="48.61316" lon="7.27608">
        <ele>768.23</ele>
        <time>2012-06-09T12:42:59Z</time>
      </trkpt>
      <trkpt lat="48.61384" lon="7.27608">
        <ele>767.27</ele>
        <time>2012-06-09T12:43:10Z</time>
      </trkpt>
      <trkpt lat="48.61417" lon="7.27638">
        <ele>765.35</ele>
        <time>2012-06-09T12:43:19Z</time>
      </trkpt>
      <trkpt lat="48.61439" lon="7.27663">
        <ele>762.94</ele>
        <time>2012-06-09T12:43:24Z</time>
      </trkpt>
      <trkpt lat="48.61457" lon="7.27687">
        <ele>761.02</ele>
        <time>2012-06-09T12:43:28Z</time>
      </trkpt>
      <trkpt lat="48.61487" lon="7.27748">
        <ele>758.14</ele>
        <time>2012-06-09T12:43:35Z</time>
      </trkpt>
      <trkpt lat="48.61546" lon="7.27882">
        <ele>751.89</ele>
        <time>2012-06-09T12:43:48Z</time>
      </trkpt>
      <trkpt lat="48.61554" lon="7.27903">
        <ele>750.93</ele>
        <time>2012-06-09T12:43:50Z</time>
      </trkpt>
      <trkpt lat="48.61608" lon="7.28046">
        <ele>743.24</ele>
        <time>2012-06-09T12:44:03Z</time>
      </trkpt>
      <trkpt lat="48.61626" lon="7.28105">
        <ele>740.83</ele>
        <time>2012-06-09T12:44:08Z</time>
      </trkpt>
      <trkpt lat="48.61664" lon="7.28158">
        <ele>735.55</ele>
        <time>2012-06-09T12:44:14Z</time>
      </trkpt>
      <trkpt lat="48.61746" lon="7.282">
        <ele>732.18</ele>
        <time>2012-06-09T12:44:25Z</time>
      </trkpt>
      <trkpt lat="48.61824" lon="7.28196">
        <ele>728.82</ele>
        <time>2012-06-09T12:44:35Z</time>
      </trkpt>
      <trkpt lat="48.61838" lon="7.28193">
        <ele>728.34</ele>
        <time>2012-06-09T12:44:37Z</time>
      </trkpt>
      <trkpt lat="48.61861" lon="7.28186">
        <ele>727.37</ele>
        <time>2012-06-09T12:44:41Z</time>
      </trkpt>
      <trkpt lat="48.61926" lon="7.28128">
        <ele>721.61</ele>
        <time>2012-06-09T12:44:52Z</time>
      </trkpt>
      <trkpt lat="48.61987" lon="7.28101">
        <ele>716.32</ele>
        <time>2012-06-09T12:45:00Z</time>
      </trkpt>
      <trkpt lat="48.62009" lon="7.28103">
        <ele>714.4</ele>
        <time>2012-06-09T12:45:03Z</time>
      </trkpt>
      <trkpt lat="48.62065" lon="7.28137">
        <ele>708.15</ele>
        <time>2012-06-09T12:45:11Z</time>
      </trkpt>
      <trkpt lat="48.62086" lon="7.28179">
        <ele>703.82</ele>
        <time>2012-06-09T12:45:18Z</time>
      </trkpt>
      <trkpt lat="48.62087" lon="7.28196">
        <ele>702.86</ele>
        <time>2012-06-09T12:45:20Z</time>
      </trkpt>
      <trkpt lat="48.62086" lon="7.28215">
        <ele>701.42</ele>
        <time>2012-06-09T12:45:22Z</time>
      </trkpt>
      <trkpt lat="48.62076" lon="7.28294">
        <ele>696.61</ele>
        <time>2012-06-09T12:45:31Z</time>
      </trkpt>
      <trkpt lat="48.62061" lon="7.28344">
        <ele>693.73</ele>
        <time>2012-06-09T12:45:37Z</time>
      </trkpt>
      <trkpt lat="48.62056" lon="7.28361">
        <ele>692.77</ele>
        <time>2012-06-09T12:45:39Z</time>
      </trkpt>
      <trkpt lat="48.62049" lon="7.28398">
        <ele>691.33</ele>
        <time>2012-06-09T12:45:43Z</time>
      </trkpt>
      <trkpt lat="48.62045" lon="7.28436">
        <ele>689.4</ele>
        <time>2012-06-09T12:45:47Z</time>
      </trkpt>
      <trkpt lat="48.62045" lon="7.28464">
        <ele>687.96</ele>
        <time>2012-06-09T12:45:53Z</time>
      </trkpt>
      <trkpt lat="48.62046" lon="7.28483">
        <ele>688.44</ele>
        <time>2012-06-09T12:45:58Z</time>
      </trkpt>
      <trkpt lat="48.62048" lon="7.28494">
        <ele>689.4</ele>
        <time>2012-06-09T12:46:00Z</time>
      </trkpt>
      <trkpt lat="48.62064" lon="7.28523">
        <ele>691.81</ele>
        <time>2012-06-09T12:46:05Z</time>
      </trkpt>
      <trkpt lat="48.6208" lon="7.28539">
        <ele>692.29</ele>
        <time>2012-06-09T12:46:08Z</time>
      </trkpt>
      <trkpt lat="48.62171" lon="7.28589">
        <ele>687.96</ele>
        <time>2012-06-09T12:46:20Z</time>
      </trkpt>
      <trkpt lat="48.62211" lon="7.28598">
        <ele>686.04</ele>
        <time>2012-06-09T12:46:25Z</time>
      </trkpt>
      <trkpt lat="48.62299" lon="7.28562">
        <ele>679.31</ele>
        <time>2012-06-09T12:46:36Z</time>
      </trkpt>
      <trkpt lat="48.62306" lon="7.28557">
        <ele>679.31</ele>
        <time>2012-06-09T12:46:37Z</time>
      </trkpt>
      <trkpt lat="48.6235" lon="7.28527">
        <ele>673.54</ele>
        <time>2012-06-09T12:46:44Z</time>
      </trkpt>
      <trkpt lat="48.62412" lon="7.28473">
        <ele>665.85</ele>
        <time>2012-06-09T12:46:56Z</time>
      </trkpt>
      <trkpt lat="48.62418" lon="7.28468">
        <ele>665.37</ele>
        <time>2012-06-09T12:46:57Z</time>
      </trkpt>
      <trkpt lat="48.62466" lon="7.28434">
        <ele>661.52</ele>
        <time>2012-06-09T12:47:04Z</time>
      </trkpt>
      <trkpt lat="48.62553" lon="7.2836">
        <ele>653.83</ele>
        <time>2012-06-09T12:47:16Z</time>
      </trkpt>
      <trkpt lat="48.62588" lon="7.28337">
        <ele>650.95</ele>
        <time>2012-06-09T12:47:21Z</time>
      </trkpt>
      <trkpt lat="48.62602" lon="7.28335">
        <ele>649.99</ele>
        <time>2012-06-09T12:47:23Z</time>
      </trkpt>
      <trkpt lat="48.62622" lon="7.2834">
        <ele>648.55</ele>
        <time>2012-06-09T12:47:26Z</time>
      </trkpt>
      <trkpt lat="48.6267" lon="7.2841">
        <ele>643.74</ele>
        <time>2012-06-09T12:47:35Z</time>
      </trkpt>
      <trkpt lat="48.62701" lon="7.28468">
        <ele>641.34</ele>
        <time>2012-06-09T12:47:41Z</time>
      </trkpt>
      <trkpt lat="48.62713" lon="7.28498">
        <ele>639.89</ele>
        <time>2012-06-09T12:47:44Z</time>
      </trkpt>
      <trkpt lat="48.62719" lon="7.28522">
        <ele>638.93</ele>
        <time>2012-06-09T12:47:46Z</time>
      </trkpt>
      <trkpt lat="48.62727" lon="7.28593">
        <ele>636.05</ele>
        <time>2012-06-09T12:47:52Z</time>
      </trkpt>
      <trkpt lat="48.62725" lon="7.28644">
        <ele>634.13</ele>
        <time>2012-06-09T12:47:56Z</time>
      </trkpt>
      <trkpt lat="48.62724" lon="7.28792">
        <ele>627.88</ele>
        <time>2012-06-09T12:48:07Z</time>
      </trkpt>
      <trkpt lat="48.62725" lon="7.28806">
        <ele>627.4</ele>
        <time>2012-06-09T12:48:08Z</time>
      </trkpt>
      <trkpt lat="48.62763" lon="7.28911">
        <ele>623.07</ele>
        <time>2012-06-09T12:48:16Z</time>
      </trkpt>
      <trkpt lat="48.62847" lon="7.29032">
        <ele>615.38</ele>
        <time>2012-06-09T12:48:28Z</time>
      </trkpt>
      <trkpt lat="48.62853" lon="7.29044">
        <ele>614.42</ele>
        <time>2012-06-09T12:48:29Z</time>
      </trkpt>
      <trkpt lat="48.62878" lon="7.29106">
        <ele>610.09</ele>
        <time>2012-06-09T12:48:34Z</time>
      </trkpt>
      <trkpt lat="48.62891" lon="7.29161">
        <ele>607.21</ele>
        <time>2012-06-09T12:48:38Z</time>
      </trkpt>
      <trkpt lat="48.62913" lon="7.29353">
        <ele>596.15</ele>
        <time>2012-06-09T12:48:52Z</time>
      </trkpt>
      <trkpt lat="48.62913" lon="7.29552">
        <ele>585.58</ele>
        <time>2012-06-09T12:49:06Z</time>
      </trkpt>
      <trkpt lat="48.62905" lon="7.29606">
        <ele>583.18</ele>
        <time>2012-06-09T12:49:10Z</time>
      </trkpt>
      <trkpt lat="48.62899" lon="7.2963">
        <ele>582.22</ele>
        <time>2012-06-09T12:49:12Z</time>
      </trkpt>
      <trkpt lat="48.62874" lon="7.29673">
        <ele>579.81</ele>
        <time>2012-06-09T12:49:17Z</time>
      </trkpt>
      <trkpt lat="48.6286" lon="7.29684">
        <ele>579.33</ele>
        <time>2012-06-09T12:49:19Z</time>
      </trkpt>
      <trkpt lat="48.62828" lon="7.29697">
        <ele>577.89</ele>
        <time>2012-06-09T12:49:23Z</time>
      </trkpt>
      <trkpt lat="48.62746" lon="7.29701">
        <ele>574.04</ele>
        <time>2012-06-09T12:49:30Z</time>
      </trkpt>
      <trkpt lat="48.62599" lon="7.29747">
        <ele>572.6</ele>
        <time>2012-06-09T12:49:44Z</time>
      </trkpt>
      <trkpt lat="48.62581" lon="7.29756">
        <ele>572.6</ele>
        <time>2012-06-09T12:49:46Z</time>
      </trkpt>
      <trkpt lat="48.62525" lon="7.29788">
        <ele>572.6</ele>
        <time>2012-06-09T12:49:52Z</time>
      </trkpt>
      <trkpt lat="48.62504" lon="7.2981">
        <ele>572.12</ele>
        <time>2012-06-09T12:49:56Z</time>
      </trkpt>
      <trkpt lat="48.6257" lon="7.299">
        <ele>569.24</ele>
        <time>2012-06-09T12:50:05Z</time>
      </trkpt>
      <trkpt lat="48.6257" lon="7.29937">
        <ele>564.91</ele>
        <time>2012-06-09T12:50:08Z</time>
      </trkpt>
      <trkpt lat="48.62559" lon="7.30091">
        <ele>547.61</ele>
        <time>2012-06-09T12:50:20Z</time>
      </trkpt>
      <trkpt lat="48.62553" lon="7.30205">
        <ele>540.88</ele>
        <time>2012-06-09T12:50:29Z</time>
      </trkpt>
      <trkpt lat="48.62526" lon="7.30291">
        <ele>534.15</ele>
        <time>2012-06-09T12:50:38Z</time>
      </trkpt>
      <trkpt lat="48.62514" lon="7.30303">
        <ele>532.71</ele>
        <time>2012-06-09T12:50:40Z</time>
      </trkpt>
      <trkpt lat="48.62489" lon="7.30326">
        <ele>527.42</ele>
        <time>2012-06-09T12:50:48Z</time>
      </trkpt>
      <trkpt lat="48.62489" lon="7.30327">
        <ele>526.94</ele>
        <time>2012-06-09T12:51:08Z</time>
      </trkpt>
      <trkpt lat="48.62487" lon="7.30327">
        <ele>526.46</ele>
        <time>2012-06-09T12:51:17Z</time>
      </trkpt>
      <trkpt lat="48.62502" lon="7.3033">
        <ele>522.61</ele>
        <time>2012-06-09T12:51:30Z</time>
      </trkpt>
      <trkpt lat="48.62515" lon="7.30328">
        <ele>522.13</ele>
        <time>2012-06-09T12:51:34Z</time>
      </trkpt>
      <trkpt lat="48.62551" lon="7.303">
        <ele>522.13</ele>
        <time>2012-06-09T12:51:44Z</time>
      </trkpt>
      <trkpt lat="48.62576" lon="7.30264">
        <ele>524.06</ele>
        <time>2012-06-09T12:51:55Z</time>
      </trkpt>
      <trkpt lat="48.62592" lon="7.30241">
        <ele>523.58</ele>
        <time>2012-06-09T12:51:59Z</time>
      </trkpt>
      <trkpt lat="48.62613" lon="7.30196">
        <ele>518.77</ele>
        <time>2012-06-09T12:52:04Z</time>
      </trkpt>
      <trkpt lat="48.6263" lon="7.30128">
        <ele>510.6</ele>
        <time>2012-06-09T12:52:10Z</time>
      </trkpt>
      <trkpt lat="48.62672" lon="7.30036">
        <ele>509.16</ele>
        <time>2012-06-09T12:52:22Z</time>
      </trkpt>
      <trkpt lat="48.62675" lon="7.3003">
        <ele>509.16</ele>
        <time>2012-06-09T12:52:23Z</time>
      </trkpt>
      <trkpt lat="48.62688" lon="7.29983">
        <ele>508.67</ele>
        <time>2012-06-09T12:52:35Z</time>
      </trkpt>
      <trkpt lat="48.62702" lon="7.29951">
        <ele>512.04</ele>
        <time>2012-06-09T12:52:45Z</time>
      </trkpt>
      <trkpt lat="48.62711" lon="7.29928">
        <ele>512.52</ele>
        <time>2012-06-09T12:52:56Z</time>
      </trkpt>
      <trkpt lat="48.6273" lon="7.29905">
        <ele>514.44</ele>
        <time>2012-06-09T12:53:07Z</time>
      </trkpt>
      <trkpt lat="48.6274" lon="7.29896">
        <ele>516.85</ele>
        <time>2012-06-09T12:53:13Z</time>
      </trkpt>
      <trkpt lat="48.62761" lon="7.29873">
        <ele>521.65</ele>
        <time>2012-06-09T12:53:26Z</time>
      </trkpt>
      <trkpt lat="48.62762" lon="7.29872">
        <ele>521.65</ele>
        <time>2012-06-09T12:53:27Z</time>
      </trkpt>
      <trkpt lat="48.62768" lon="7.2987">
        <ele>522.61</ele>
        <time>2012-06-09T12:53:40Z</time>
      </trkpt>
      <trkpt lat="48.62787" lon="7.29871">
        <ele>525.02</ele>
        <time>2012-06-09T12:53:49Z</time>
      </trkpt>
      <trkpt lat="48.62812" lon="7.29892">
        <ele>527.42</ele>
        <time>2012-06-09T12:53:58Z</time>
      </trkpt>
      <trkpt lat="48.62851" lon="7.29923">
        <ele>527.42</ele>
        <time>2012-06-09T12:54:08Z</time>
      </trkpt>
      <trkpt lat="48.62854" lon="7.29926">
        <ele>526.94</ele>
        <time>2012-06-09T12:54:09Z</time>
      </trkpt>
      <trkpt lat="48.62892" lon="7.29946">
        <ele>524.54</ele>
        <time>2012-06-09T12:54:17Z</time>
      </trkpt>
      <trkpt lat="48.6291" lon="7.2995">
        <ele>523.09</ele>
        <time>2012-06-09T12:54:21Z</time>
      </trkpt>
      <trkpt lat="48.62953" lon="7.29975">
        <ele>519.73</ele>
        <time>2012-06-09T12:54:33Z</time>
      </trkpt>
      <trkpt lat="48.62954" lon="7.29974">
        <ele>519.25</ele>
        <time>2012-06-09T12:54:51Z</time>
      </trkpt>
      <trkpt lat="48.62964" lon="7.29979">
        <ele>516.85</ele>
        <time>2012-06-09T12:54:59Z</time>
      </trkpt>
      <trkpt lat="48.62977" lon="7.29987">
        <ele>515.88</ele>
        <time>2012-06-09T12:55:05Z</time>
      </trkpt>
      <trkpt lat="48.63005" lon="7.29971">
        <ele>516.37</ele>
        <time>2012-06-09T12:55:18Z</time>
      </trkpt>
      <trkpt lat="48.63019" lon="7.29938">
        <ele>518.29</ele>
        <time>2012-06-09T12:55:29Z</time>
      </trkpt>
      <trkpt lat="48.63034" lon="7.29888">
        <ele>523.09</ele>
        <time>2012-06-09T12:55:41Z</time>
      </trkpt>
      <trkpt lat="48.63055" lon="7.29816">
        <ele>525.5</ele>
        <time>2012-06-09T12:55:54Z</time>
      </trkpt>
      <trkpt lat="48.63074" lon="7.29749">
        <ele>529.34</ele>
        <time>2012-06-09T12:56:06Z</time>
      </trkpt>
      <trkpt lat="48.63083" lon="7.2973">
        <ele>532.71</ele>
        <time>2012-06-09T12:56:12Z</time>
      </trkpt>
      <trkpt lat="48.63086" lon="7.2972">
        <ele>537.51</ele>
        <time>2012-06-09T12:56:27Z</time>
      </trkpt>
      <trkpt lat="48.63086" lon="7.29718">
        <ele>537.99</ele>
        <time>2012-06-09T12:56:32Z</time>
      </trkpt>
      <trkpt lat="48.63091" lon="7.297">
        <ele>538.48</ele>
        <time>2012-06-09T12:56:38Z</time>
      </trkpt>
      <trkpt lat="48.63095" lon="7.29686">
        <ele>538.96</ele>
        <time>2012-06-09T12:56:48Z</time>
      </trkpt>
      <trkpt lat="48.63096" lon="7.29675">
        <ele>539.44</ele>
        <time>2012-06-09T12:57:07Z</time>
      </trkpt>
      <trkpt lat="48.63106" lon="7.29631">
        <ele>543.28</ele>
        <time>2012-06-09T12:57:18Z</time>
      </trkpt>
      <trkpt lat="48.6311" lon="7.29605">
        <ele>546.65</ele>
        <time>2012-06-09T12:57:25Z</time>
      </trkpt>
      <trkpt lat="48.63118" lon="7.29578">
        <ele>546.17</ele>
        <time>2012-06-09T12:57:35Z</time>
      </trkpt>
      <trkpt lat="48.63117" lon="7.29564">
        <ele>543.76</ele>
        <time>2012-06-09T12:57:47Z</time>
      </trkpt>
      <trkpt lat="48.63117" lon="7.29564">
        <ele>543.76</ele>
        <time>2012-06-09T12:57:49Z</time>
      </trkpt>
      <trkpt lat="48.63116" lon="7.29555">
        <ele>541.84</ele>
        <time>2012-06-09T12:57:54Z</time>
      </trkpt>
      <trkpt lat="48.63117" lon="7.29541">
        <ele>538.48</ele>
        <time>2012-06-09T12:57:58Z</time>
      </trkpt>
      <trkpt lat="48.63113" lon="7.2949">
        <ele>528.38</ele>
        <time>2012-06-09T12:58:08Z</time>
      </trkpt>
      <trkpt lat="48.63118" lon="7.2946">
        <ele>525.5</ele>
        <time>2012-06-09T12:58:17Z</time>
      </trkpt>
      <trkpt lat="48.63118" lon="7.29457">
        <ele>523.58</ele>
        <time>2012-06-09T12:58:31Z</time>
      </trkpt>
      <trkpt lat="48.63117" lon="7.29453">
        <ele>521.65</ele>
        <time>2012-06-09T12:58:37Z</time>
      </trkpt>
      <trkpt lat="48.63123" lon="7.29423">
        <ele>513.48</ele>
        <time>2012-06-09T12:58:44Z</time>
      </trkpt>
      <trkpt lat="48.63128" lon="7.29388">
        <ele>510.6</ele>
        <time>2012-06-09T12:58:55Z</time>
      </trkpt>
      <trkpt lat="48.6313" lon="7.29378">
        <ele>510.6</ele>
        <time>2012-06-09T12:59:03Z</time>
      </trkpt>
      <trkpt lat="48.6313" lon="7.29378">
        <ele>510.6</ele>
        <time>2012-06-09T12:59:18Z</time>
      </trkpt>
      <trkpt lat="48.63129" lon="7.29378">
        <ele>510.6</ele>
        <time>2012-06-09T12:59:33Z</time>
      </trkpt>
      <trkpt lat="48.63129" lon="7.29378">
        <ele>510.6</ele>
        <time>2012-06-09T12:59:54Z</time>
      </trkpt>
      <trkpt lat="48.63129" lon="7.29378">
        <ele>510.12</ele>
        <time>2012-06-09T13:00:07Z</time>
      </trkpt>
      <trkpt lat="48.63129" lon="7.29375">
        <ele>509.64</ele>
        <time>2012-06-09T13:00:09Z</time>
      </trkpt>
      <trkpt lat="48.63132" lon="7.29363">
        <ele>508.67</ele>
        <time>2012-06-09T13:00:13Z</time>
      </trkpt>
      <trkpt lat="48.63132" lon="7.29353">
        <ele>508.67</ele>
        <time>2012-06-09T13:00:15Z</time>
      </trkpt>
      <trkpt lat="48.63135" lon="7.29339">
        <ele>509.16</ele>
        <time>2012-06-09T13:00:17Z</time>
      </trkpt>
      <trkpt lat="48.63142" lon="7.29305">
        <ele>510.6</ele>
        <time>2012-06-09T13:00:22Z</time>
      </trkpt>
      <trkpt lat="48.63147" lon="7.29274">
        <ele>510.6</ele>
        <time>2012-06-09T13:00:26Z</time>
      </trkpt>
      <trkpt lat="48.6315" lon="7.29243">
        <ele>511.56</ele>
        <time>2012-06-09T13:00:30Z</time>
      </trkpt>
      <trkpt lat="48.63152" lon="7.2922">
        <ele>511.56</ele>
        <time>2012-06-09T13:00:33Z</time>
      </trkpt>
      <trkpt lat="48.63154" lon="7.29177">
        <ele>510.6</ele>
        <time>2012-06-09T13:00:38Z</time>
      </trkpt>
      <trkpt lat="48.63157" lon="7.29068">
        <ele>501.95</ele>
        <time>2012-06-09T13:00:51Z</time>
      </trkpt>
      <trkpt lat="48.63155" lon="7.28998">
        <ele>498.1</ele>
        <time>2012-06-09T13:01:01Z</time>
      </trkpt>
      <trkpt lat="48.63136" lon="7.28922">
        <ele>496.66</ele>
        <time>2012-06-09T13:01:12Z</time>
      </trkpt>
      <trkpt lat="48.6313" lon="7.28905">
        <ele>496.18</ele>
        <time>2012-06-09T13:01:14Z</time>
      </trkpt>
      <trkpt lat="48.63123" lon="7.28891">
        <ele>495.7</ele>
        <time>2012-06-09T13:01:16Z</time>
      </trkpt>
      <trkpt lat="48.63116" lon="7.28879">
        <ele>495.22</ele>
        <time>2012-06-09T13:01:18Z</time>
      </trkpt>
      <trkpt lat="48.63107" lon="7.28862">
        <ele>494.74</ele>
        <time>2012-06-09T13:01:21Z</time>
      </trkpt>
      <trkpt lat="48.63096" lon="7.28828">
        <ele>494.26</ele>
        <time>2012-06-09T13:01:27Z</time>
      </trkpt>
      <trkpt lat="48.63084" lon="7.28789">
        <ele>494.74</ele>
        <time>2012-06-09T13:01:35Z</time>
      </trkpt>
      <trkpt lat="48.63081" lon="7.28775">
        <ele>494.26</ele>
        <time>2012-06-09T13:01:37Z</time>
      </trkpt>
      <trkpt lat="48.63071" lon="7.28702">
        <ele>492.33</ele>
        <time>2012-06-09T13:01:48Z</time>
      </trkpt>
      <trkpt lat="48.63067" lon="7.28677">
        <ele>491.85</ele>
        <time>2012-06-09T13:01:53Z</time>
      </trkpt>
      <trkpt lat="48.63058" lon="7.28639">
        <ele>491.85</ele>
        <time>2012-06-09T13:02:01Z</time>
      </trkpt>
      <trkpt lat="48.63042" lon="7.28604">
        <ele>491.85</ele>
        <time>2012-06-09T13:02:10Z</time>
      </trkpt>
      <trkpt lat="48.63041" lon="7.28601">
        <ele>491.85</ele>
        <time>2012-06-09T13:02:11Z</time>
      </trkpt>
      <trkpt lat="48.6303" lon="7.28591">
        <ele>490.41</ele>
        <time>2012-06-09T13:02:23Z</time>
      </trkpt>
      <trkpt lat="48.6303" lon="7.28591">
        <ele>490.41</ele>
        <time>2012-06-09T13:02:48Z</time>
      </trkpt>
      <trkpt lat="48.63028" lon="7.28591">
        <ele>489.93</ele>
        <time>2012-06-09T13:03:13Z</time>
      </trkpt>
      <trkpt lat="48.63026" lon="7.28587">
        <ele>488.97</ele>
        <time>2012-06-09T13:03:15Z</time>
      </trkpt>
      <trkpt lat="48.63022" lon="7.28545">
        <ele>484.16</ele>
        <time>2012-06-09T13:03:24Z</time>
      </trkpt>
      <trkpt lat="48.63014" lon="7.28499">
        <ele>486.08</ele>
        <time>2012-06-09T13:03:36Z</time>
      </trkpt>
      <trkpt lat="48.63008" lon="7.28482">
        <ele>487.05</ele>
        <time>2012-06-09T13:03:40Z</time>
      </trkpt>
      <trkpt lat="48.62999" lon="7.28452">
        <ele>487.05</ele>
        <time>2012-06-09T13:03:47Z</time>
      </trkpt>
      <trkpt lat="48.62989" lon="7.28401">
        <ele>486.08</ele>
        <time>2012-06-09T13:03:58Z</time>
      </trkpt>
      <trkpt lat="48.62978" lon="7.28349">
        <ele>486.08</ele>
        <time>2012-06-09T13:04:09Z</time>
      </trkpt>
      <trkpt lat="48.62974" lon="7.28325">
        <ele>484.64</ele>
        <time>2012-06-09T13:04:13Z</time>
      </trkpt>
      <trkpt lat="48.62962" lon="7.28293">
        <ele>484.64</ele>
        <time>2012-06-09T13:04:23Z</time>
      </trkpt>
      <trkpt lat="48.62961" lon="7.28292">
        <ele>483.68</ele>
        <time>2012-06-09T13:04:30Z</time>
      </trkpt>
      <trkpt lat="48.62951" lon="7.28259">
        <ele>481.28</ele>
        <time>2012-06-09T13:04:40Z</time>
      </trkpt>
      <trkpt lat="48.62946" lon="7.28253">
        <ele>480.8</ele>
        <time>2012-06-09T13:04:42Z</time>
      </trkpt>
      <trkpt lat="48.62924" lon="7.28203">
        <ele>479.84</ele>
        <time>2012-06-09T13:04:53Z</time>
      </trkpt>
      <trkpt lat="48.62904" lon="7.28153">
        <ele>476.95</ele>
        <time>2012-06-09T13:05:04Z</time>
      </trkpt>
      <trkpt lat="48.62871" lon="7.28105">
        <ele>476.95</ele>
        <time>2012-06-09T13:05:16Z</time>
      </trkpt>
      <trkpt lat="48.62866" lon="7.28096">
        <ele>476.95</ele>
        <time>2012-06-09T13:05:18Z</time>
      </trkpt>
      <trkpt lat="48.62847" lon="7.28082">
        <ele>476.95</ele>
        <time>2012-06-09T13:05:23Z</time>
      </trkpt>
      <trkpt lat="48.62824" lon="7.28051">
        <ele>478.39</ele>
        <time>2012-06-09T13:05:33Z</time>
      </trkpt>
      <trkpt lat="48.62804" lon="7.28025">
        <ele>484.16</ele>
        <time>2012-06-09T13:05:45Z</time>
      </trkpt>
      <trkpt lat="48.62774" lon="7.27998">
        <ele>484.16</ele>
        <time>2012-06-09T13:05:55Z</time>
      </trkpt>
      <trkpt lat="48.62735" lon="7.27974">
        <ele>485.12</ele>
        <time>2012-06-09T13:06:05Z</time>
      </trkpt>
      <trkpt lat="48.6269" lon="7.27941">
        <ele>484.64</ele>
        <time>2012-06-09T13:06:14Z</time>
      </trkpt>
      <trkpt lat="48.62658" lon="7.27928">
        <ele>484.64</ele>
        <time>2012-06-09T13:06:24Z</time>
      </trkpt>
      <trkpt lat="48.62641" lon="7.2792">
        <ele>484.64</ele>
        <time>2012-06-09T13:06:28Z</time>
      </trkpt>
      <trkpt lat="48.62639" lon="7.27902">
        <ele>484.64</ele>
        <time>2012-06-09T13:06:36Z</time>
      </trkpt>
      <trkpt lat="48.62701" lon="7.279">
        <ele>484.64</ele>
        <time>2012-06-09T13:06:47Z</time>
      </trkpt>
      <trkpt lat="48.62712" lon="7.27904">
        <ele>483.68</ele>
        <time>2012-06-09T13:06:49Z</time>
      </trkpt>
      <trkpt lat="48.6273" lon="7.27911">
        <ele>481.76</ele>
        <time>2012-06-09T13:06:55Z</time>
      </trkpt>
      <trkpt lat="48.62725" lon="7.27911">
        <ele>480.8</ele>
        <time>2012-06-09T13:06:59Z</time>
      </trkpt>
      <trkpt lat="48.6271" lon="7.27911">
        <ele>480.8</ele>
        <time>2012-06-09T13:07:06Z</time>
      </trkpt>
      <trkpt lat="48.62707" lon="7.27915">
        <ele>480.8</ele>
        <time>2012-06-09T13:07:10Z</time>
      </trkpt>
      <trkpt lat="48.62719" lon="7.27918">
        <ele>480.32</ele>
        <time>2012-06-09T13:07:15Z</time>
      </trkpt>
      <trkpt lat="48.6275" lon="7.27917">
        <ele>476.95</ele>
        <time>2012-06-09T13:07:25Z</time>
      </trkpt>
      <trkpt lat="48.62817" lon="7.27945">
        <ele>467.82</ele>
        <time>2012-06-09T13:07:39Z</time>
      </trkpt>
      <trkpt lat="48.62844" lon="7.27959">
        <ele>465.42</ele>
        <time>2012-06-09T13:07:45Z</time>
      </trkpt>
      <trkpt lat="48.62864" lon="7.2799">
        <ele>463.97</ele>
        <time>2012-06-09T13:07:50Z</time>
      </trkpt>
      <trkpt lat="48.62874" lon="7.28019">
        <ele>463.01</ele>
        <time>2012-06-09T13:07:53Z</time>
      </trkpt>
      <trkpt lat="48.62902" lon="7.28074">
        <ele>461.09</ele>
        <time>2012-06-09T13:07:59Z</time>
      </trkpt>
      <trkpt lat="48.62922" lon="7.28113">
        <ele>459.65</ele>
        <time>2012-06-09T13:08:03Z</time>
      </trkpt>
      <trkpt lat="48.6294" lon="7.28143">
        <ele>457.72</ele>
        <time>2012-06-09T13:08:06Z</time>
      </trkpt>
      <trkpt lat="48.62959" lon="7.28163">
        <ele>455.32</ele>
        <time>2012-06-09T13:08:09Z</time>
      </trkpt>
      <trkpt lat="48.62982" lon="7.28198">
        <ele>453.4</ele>
        <time>2012-06-09T13:08:15Z</time>
      </trkpt>
      <trkpt lat="48.63005" lon="7.2823">
        <ele>453.4</ele>
        <time>2012-06-09T13:08:25Z</time>
      </trkpt>
      <trkpt lat="48.6302" lon="7.2824">
        <ele>453.88</ele>
        <time>2012-06-09T13:08:35Z</time>
      </trkpt>
      <trkpt lat="48.63022" lon="7.28241">
        <ele>454.36</ele>
        <time>2012-06-09T13:08:36Z</time>
      </trkpt>
      <trkpt lat="48.63026" lon="7.28246">
        <ele>454.36</ele>
        <time>2012-06-09T13:08:40Z</time>
      </trkpt>
      <trkpt lat="48.63031" lon="7.28253">
        <ele>454.84</ele>
        <time>2012-06-09T13:08:45Z</time>
      </trkpt>
      <trkpt lat="48.63052" lon="7.28286">
        <ele>459.65</ele>
        <time>2012-06-09T13:08:57Z</time>
      </trkpt>
      <trkpt lat="48.63054" lon="7.28289">
        <ele>460.13</ele>
        <time>2012-06-09T13:08:58Z</time>
      </trkpt>
      <trkpt lat="48.63062" lon="7.28302">
        <ele>463.01</ele>
        <time>2012-06-09T13:09:03Z</time>
      </trkpt>
      <trkpt lat="48.63084" lon="7.28324">
        <ele>472.63</ele>
        <time>2012-06-09T13:09:14Z</time>
      </trkpt>
      <trkpt lat="48.63093" lon="7.2834">
        <ele>475.51</ele>
        <time>2012-06-09T13:09:19Z</time>
      </trkpt>
      <trkpt lat="48.63103" lon="7.28354">
        <ele>477.43</ele>
        <time>2012-06-09T13:09:26Z</time>
      </trkpt>
      <trkpt lat="48.63108" lon="7.2836">
        <ele>479.35</ele>
        <time>2012-06-09T13:09:31Z</time>
      </trkpt>
      <trkpt lat="48.63118" lon="7.28371">
        <ele>480.8</ele>
        <time>2012-06-09T13:09:38Z</time>
      </trkpt>
      <trkpt lat="48.63136" lon="7.2839">
        <ele>484.64</ele>
        <time>2012-06-09T13:09:51Z</time>
      </trkpt>
      <trkpt lat="48.63137" lon="7.28391">
        <ele>484.64</ele>
        <time>2012-06-09T13:09:52Z</time>
      </trkpt>
      <trkpt lat="48.63146" lon="7.28404">
        <ele>487.05</ele>
        <time>2012-06-09T13:09:58Z</time>
      </trkpt>
      <trkpt lat="48.63174" lon="7.28428">
        <ele>487.05</ele>
        <time>2012-06-09T13:10:12Z</time>
      </trkpt>
      <trkpt lat="48.63186" lon="7.28427">
        <ele>485.6</ele>
        <time>2012-06-09T13:10:21Z</time>
      </trkpt>
      <trkpt lat="48.63208" lon="7.28429">
        <ele>487.05</ele>
        <time>2012-06-09T13:10:33Z</time>
      </trkpt>
      <trkpt lat="48.63224" lon="7.28426">
        <ele>489.93</ele>
        <time>2012-06-09T13:10:43Z</time>
      </trkpt>
      <trkpt lat="48.63249" lon="7.28426">
        <ele>493.77</ele>
        <time>2012-06-09T13:10:56Z</time>
      </trkpt>
      <trkpt lat="48.63258" lon="7.2843">
        <ele>493.77</ele>
        <time>2012-06-09T13:11:01Z</time>
      </trkpt>
      <trkpt lat="48.63266" lon="7.28456">
        <ele>493.77</ele>
        <time>2012-06-09T13:11:13Z</time>
      </trkpt>
      <trkpt lat="48.63265" lon="7.28492">
        <ele>494.26</ele>
        <time>2012-06-09T13:11:24Z</time>
      </trkpt>
      <trkpt lat="48.63274" lon="7.28532">
        <ele>494.26</ele>
        <time>2012-06-09T13:11:36Z</time>
      </trkpt>
      <trkpt lat="48.6328" lon="7.28562">
        <ele>494.26</ele>
        <time>2012-06-09T13:11:46Z</time>
      </trkpt>
      <trkpt lat="48.6328" lon="7.28562">
        <ele>494.26</ele>
        <time>2012-06-09T13:12:04Z</time>
      </trkpt>
      <trkpt lat="48.63279" lon="7.28563">
        <ele>494.74</ele>
        <time>2012-06-09T13:12:28Z</time>
      </trkpt>
      <trkpt lat="48.63279" lon="7.28563">
        <ele>494.74</ele>
        <time>2012-06-09T13:12:33Z</time>
      </trkpt>
      <trkpt lat="48.63283" lon="7.28574">
        <ele>495.7</ele>
        <time>2012-06-09T13:12:38Z</time>
      </trkpt>
      <trkpt lat="48.63296" lon="7.28617">
        <ele>497.62</ele>
        <time>2012-06-09T13:12:47Z</time>
      </trkpt>
      <trkpt lat="48.63318" lon="7.28663">
        <ele>498.1</ele>
        <time>2012-06-09T13:12:55Z</time>
      </trkpt>
      <trkpt lat="48.63334" lon="7.28691">
        <ele>496.66</ele>
        <time>2012-06-09T13:13:00Z</time>
      </trkpt>
      <trkpt lat="48.63369" lon="7.28708">
        <ele>489.93</ele>
        <time>2012-06-09T13:13:08Z</time>
      </trkpt>
      <trkpt lat="48.63385" lon="7.28705">
        <ele>489.93</ele>
        <time>2012-06-09T13:13:12Z</time>
      </trkpt>
      <trkpt lat="48.63398" lon="7.28695">
        <ele>490.89</ele>
        <time>2012-06-09T13:13:15Z</time>
      </trkpt>
      <trkpt lat="48.63411" lon="7.28687">
        <ele>491.37</ele>
        <time>2012-06-09T13:13:18Z</time>
      </trkpt>
      <trkpt lat="48.63424" lon="7.28683">
        <ele>491.85</ele>
        <time>2012-06-09T13:13:21Z</time>
      </trkpt>
      <trkpt lat="48.63439" lon="7.28677">
        <ele>491.85</ele>
        <time>2012-06-09T13:13:25Z</time>
      </trkpt>
      <trkpt lat="48.63458" lon="7.28693">
        <ele>491.37</ele>
        <time>2012-06-09T13:13:34Z</time>
      </trkpt>
      <trkpt lat="48.63459" lon="7.28694">
        <ele>491.37</ele>
        <time>2012-06-09T13:13:35Z</time>
      </trkpt>
      <trkpt lat="48.63464" lon="7.28715">
        <ele>491.85</ele>
        <time>2012-06-09T13:13:46Z</time>
      </trkpt>
      <trkpt lat="48.63467" lon="7.28737">
        <ele>492.33</ele>
        <time>2012-06-09T13:13:56Z</time>
      </trkpt>
      <trkpt lat="48.6347" lon="7.28754">
        <ele>492.33</ele>
        <time>2012-06-09T13:14:03Z</time>
      </trkpt>
      <trkpt lat="48.63477" lon="7.2878">
        <ele>492.81</ele>
        <time>2012-06-09T13:14:13Z</time>
      </trkpt>
      <trkpt lat="48.63485" lon="7.28816">
        <ele>492.33</ele>
        <time>2012-06-09T13:14:24Z</time>
      </trkpt>
      <trkpt lat="48.63485" lon="7.28827">
        <ele>492.81</ele>
        <time>2012-06-09T13:14:28Z</time>
      </trkpt>
      <trkpt lat="48.63496" lon="7.28859">
        <ele>494.26</ele>
        <time>2012-06-09T13:14:41Z</time>
      </trkpt>
      <trkpt lat="48.63508" lon="7.28888">
        <ele>495.7</ele>
        <time>2012-06-09T13:14:52Z</time>
      </trkpt>
      <trkpt lat="48.63529" lon="7.28915">
        <ele>498.1</ele>
        <time>2012-06-09T13:15:06Z</time>
      </trkpt>
      <trkpt lat="48.63533" lon="7.28919">
        <ele>499.06</ele>
        <time>2012-06-09T13:15:20Z</time>
      </trkpt>
      <trkpt lat="48.63533" lon="7.28919">
        <ele>499.06</ele>
        <time>2012-06-09T13:15:48Z</time>
      </trkpt>
      <trkpt lat="48.63546" lon="7.28934">
        <ele>498.58</ele>
        <time>2012-06-09T13:16:02Z</time>
      </trkpt>
      <trkpt lat="48.63554" lon="7.28937">
        <ele>498.1</ele>
        <time>2012-06-09T13:16:06Z</time>
      </trkpt>
      <trkpt lat="48.63562" lon="7.2894">
        <ele>498.1</ele>
        <time>2012-06-09T13:16:10Z</time>
      </trkpt>
      <trkpt lat="48.63574" lon="7.28935">
        <ele>498.1</ele>
        <time>2012-06-09T13:16:17Z</time>
      </trkpt>
      <trkpt lat="48.63596" lon="7.28934">
        <ele>499.54</ele>
        <time>2012-06-09T13:16:28Z</time>
      </trkpt>
      <trkpt lat="48.63614" lon="7.28933">
        <ele>501.46</ele>
        <time>2012-06-09T13:16:37Z</time>
      </trkpt>
      <trkpt lat="48.63624" lon="7.28934">
        <ele>501.95</ele>
        <time>2012-06-09T13:16:41Z</time>
      </trkpt>
      <trkpt lat="48.6364" lon="7.28925">
        <ele>503.39</ele>
        <time>2012-06-09T13:16:48Z</time>
      </trkpt>
      <trkpt lat="48.63658" lon="7.28924">
        <ele>505.31</ele>
        <time>2012-06-09T13:16:58Z</time>
      </trkpt>
      <trkpt lat="48.6368" lon="7.28921">
        <ele>507.71</ele>
        <time>2012-06-09T13:17:09Z</time>
      </trkpt>
      <trkpt lat="48.6369" lon="7.28918">
        <ele>509.16</ele>
        <time>2012-06-09T13:17:15Z</time>
      </trkpt>
      <trkpt lat="48.63697" lon="7.28915">
        <ele>509.64</ele>
        <time>2012-06-09T13:17:28Z</time>
      </trkpt>
      <trkpt lat="48.63708" lon="7.28913">
        <ele>509.64</ele>
        <time>2012-06-09T13:17:43Z</time>
      </trkpt>
      <trkpt lat="48.63732" lon="7.28914">
        <ele>511.08</ele>
        <time>2012-06-09T13:17:53Z</time>
      </trkpt>
      <trkpt lat="48.63774" lon="7.28914">
        <ele>510.6</ele>
        <time>2012-06-09T13:18:04Z</time>
      </trkpt>
      <trkpt lat="48.63819" lon="7.28912">
        <ele>513</ele>
        <time>2012-06-09T13:18:18Z</time>
      </trkpt>
      <trkpt lat="48.63852" lon="7.28902">
        <ele>517.81</ele>
        <time>2012-06-09T13:18:29Z</time>
      </trkpt>
      <trkpt lat="48.63887" lon="7.28888">
        <ele>520.21</ele>
        <time>2012-06-09T13:18:40Z</time>
      </trkpt>
      <trkpt lat="48.63901" lon="7.28884">
        <ele>520.21</ele>
        <time>2012-06-09T13:18:43Z</time>
      </trkpt>
      <trkpt lat="48.63919" lon="7.28908">
        <ele>520.21</ele>
        <time>2012-06-09T13:18:50Z</time>
      </trkpt>
      <trkpt lat="48.63914" lon="7.28938">
        <ele>520.21</ele>
        <time>2012-06-09T13:18:54Z</time>
      </trkpt>
      <trkpt lat="48.6391" lon="7.2895">
        <ele>520.21</ele>
        <time>2012-06-09T13:18:56Z</time>
      </trkpt>
      <trkpt lat="48.63889" lon="7.28988">
        <ele>520.21</ele>
        <time>2012-06-09T13:19:02Z</time>
      </trkpt>
      <trkpt lat="48.63868" lon="7.29035">
        <ele>520.69</ele>
        <time>2012-06-09T13:19:10Z</time>
      </trkpt>
      <trkpt lat="48.63862" lon="7.29044">
        <ele>520.69</ele>
        <time>2012-06-09T13:19:12Z</time>
      </trkpt>
      <trkpt lat="48.63845" lon="7.29075">
        <ele>521.17</ele>
        <time>2012-06-09T13:19:17Z</time>
      </trkpt>
      <trkpt lat="48.63797" lon="7.29136">
        <ele>521.65</ele>
        <time>2012-06-09T13:19:30Z</time>
      </trkpt>
      <trkpt lat="48.63792" lon="7.29146">
        <ele>521.65</ele>
        <time>2012-06-09T13:19:32Z</time>
      </trkpt>
      <trkpt lat="48.63782" lon="7.29164">
        <ele>521.65</ele>
        <time>2012-06-09T13:19:35Z</time>
      </trkpt>
      <trkpt lat="48.63754" lon="7.29203">
        <ele>520.21</ele>
        <time>2012-06-09T13:19:45Z</time>
      </trkpt>
      <trkpt lat="48.63719" lon="7.29253">
        <ele>515.4</ele>
        <time>2012-06-09T13:19:57Z</time>
      </trkpt>
      <trkpt lat="48.6371" lon="7.29266">
        <ele>513.96</ele>
        <time>2012-06-09T13:20:00Z</time>
      </trkpt>
      <trkpt lat="48.63695" lon="7.29296">
        <ele>512.52</ele>
        <time>2012-06-09T13:20:05Z</time>
      </trkpt>
      <trkpt lat="48.63682" lon="7.29324">
        <ele>510.6</ele>
        <time>2012-06-09T13:20:10Z</time>
      </trkpt>
      <trkpt lat="48.63673" lon="7.29349">
        <ele>507.71</ele>
        <time>2012-06-09T13:20:14Z</time>
      </trkpt>
      <trkpt lat="48.63651" lon="7.29431">
        <ele>500.98</ele>
        <time>2012-06-09T13:20:27Z</time>
      </trkpt>
      <trkpt lat="48.63648" lon="7.29487">
        <ele>497.62</ele>
        <time>2012-06-09T13:20:38Z</time>
      </trkpt>
      <trkpt lat="48.63651" lon="7.29551">
        <ele>494.26</ele>
        <time>2012-06-09T13:20:49Z</time>
      </trkpt>
      <trkpt lat="48.63652" lon="7.29558">
        <ele>494.26</ele>
        <time>2012-06-09T13:20:50Z</time>
      </trkpt>
      <trkpt lat="48.63659" lon="7.29588">
        <ele>493.29</ele>
        <time>2012-06-09T13:20:55Z</time>
      </trkpt>
      <trkpt lat="48.63672" lon="7.29642">
        <ele>491.37</ele>
        <time>2012-06-09T13:21:07Z</time>
      </trkpt>
      <trkpt lat="48.6368" lon="7.29685">
        <ele>493.29</ele>
        <time>2012-06-09T13:21:16Z</time>
      </trkpt>
      <trkpt lat="48.63696" lon="7.29744">
        <ele>494.74</ele>
        <time>2012-06-09T13:21:26Z</time>
      </trkpt>
      <trkpt lat="48.63709" lon="7.29805">
        <ele>494.26</ele>
        <time>2012-06-09T13:21:36Z</time>
      </trkpt>
      <trkpt lat="48.6372" lon="7.29843">
        <ele>493.77</ele>
        <time>2012-06-09T13:21:43Z</time>
      </trkpt>
      <trkpt lat="48.63731" lon="7.29869">
        <ele>494.26</ele>
        <time>2012-06-09T13:21:47Z</time>
      </trkpt>
      <trkpt lat="48.63743" lon="7.29885">
        <ele>493.29</ele>
        <time>2012-06-09T13:21:50Z</time>
      </trkpt>
      <trkpt lat="48.63766" lon="7.29905">
        <ele>491.37</ele>
        <time>2012-06-09T13:21:55Z</time>
      </trkpt>
      <trkpt lat="48.63788" lon="7.29917">
        <ele>489.93</ele>
        <time>2012-06-09T13:21:59Z</time>
      </trkpt>
      <trkpt lat="48.63816" lon="7.29913">
        <ele>488.49</ele>
        <time>2012-06-09T13:22:04Z</time>
      </trkpt>
      <trkpt lat="48.63833" lon="7.29906">
        <ele>488.49</ele>
        <time>2012-06-09T13:22:07Z</time>
      </trkpt>
      <trkpt lat="48.63905" lon="7.29845">
        <ele>487.53</ele>
        <time>2012-06-09T13:22:19Z</time>
      </trkpt>
      <trkpt lat="48.63974" lon="7.29783">
        <ele>486.56</ele>
        <time>2012-06-09T13:22:30Z</time>
      </trkpt>
      <trkpt lat="48.64002" lon="7.29753">
        <ele>486.08</ele>
        <time>2012-06-09T13:22:35Z</time>
      </trkpt>
      <trkpt lat="48.64012" lon="7.29743">
        <ele>485.6</ele>
        <time>2012-06-09T13:22:37Z</time>
      </trkpt>
      <trkpt lat="48.64055" lon="7.29719">
        <ele>485.6</ele>
        <time>2012-06-09T13:22:49Z</time>
      </trkpt>
      <trkpt lat="48.64061" lon="7.29719">
        <ele>485.6</ele>
        <time>2012-06-09T13:22:52Z</time>
      </trkpt>
      <trkpt lat="48.64076" lon="7.29716">
        <ele>485.6</ele>
        <time>2012-06-09T13:22:57Z</time>
      </trkpt>
      <trkpt lat="48.64117" lon="7.29708">
        <ele>486.08</ele>
        <time>2012-06-09T13:23:09Z</time>
      </trkpt>
      <trkpt lat="48.6413" lon="7.29729">
        <ele>486.56</ele>
        <time>2012-06-09T13:23:14Z</time>
      </trkpt>
      <trkpt lat="48.64135" lon="7.29743">
        <ele>487.05</ele>
        <time>2012-06-09T13:23:17Z</time>
      </trkpt>
      <trkpt lat="48.64132" lon="7.29796">
        <ele>487.53</ele>
        <time>2012-06-09T13:23:25Z</time>
      </trkpt>
      <trkpt lat="48.6413" lon="7.29818">
        <ele>488.01</ele>
        <time>2012-06-09T13:23:28Z</time>
      </trkpt>
      <trkpt lat="48.64123" lon="7.29871">
        <ele>488.97</ele>
        <time>2012-06-09T13:23:36Z</time>
      </trkpt>
      <trkpt lat="48.64113" lon="7.2993">
        <ele>488.97</ele>
        <time>2012-06-09T13:23:43Z</time>
      </trkpt>
      <trkpt lat="48.64109" lon="7.29974">
        <ele>488.49</ele>
        <time>2012-06-09T13:23:50Z</time>
      </trkpt>
      <trkpt lat="48.64107" lon="7.30023">
        <ele>489.45</ele>
        <time>2012-06-09T13:23:57Z</time>
      </trkpt>
      <trkpt lat="48.64108" lon="7.30045">
        <ele>489.45</ele>
        <time>2012-06-09T13:24:00Z</time>
      </trkpt>
      <trkpt lat="48.64119" lon="7.30107">
        <ele>489.93</ele>
        <time>2012-06-09T13:24:09Z</time>
      </trkpt>
      <trkpt lat="48.64138" lon="7.30171">
        <ele>491.37</ele>
        <time>2012-06-09T13:24:22Z</time>
      </trkpt>
      <trkpt lat="48.64147" lon="7.30215">
        <ele>488.49</ele>
        <time>2012-06-09T13:24:33Z</time>
      </trkpt>
      <trkpt lat="48.64157" lon="7.30268">
        <ele>485.6</ele>
        <time>2012-06-09T13:24:45Z</time>
      </trkpt>
      <trkpt lat="48.64166" lon="7.30304">
        <ele>486.08</ele>
        <time>2012-06-09T13:24:55Z</time>
      </trkpt>
      <trkpt lat="48.64178" lon="7.30333">
        <ele>487.53</ele>
        <time>2012-06-09T13:25:06Z</time>
      </trkpt>
      <trkpt lat="48.64179" lon="7.30333">
        <ele>487.05</ele>
        <time>2012-06-09T13:25:07Z</time>
      </trkpt>
      <trkpt lat="48.64179" lon="7.30335">
        <ele>486.08</ele>
        <time>2012-06-09T13:25:19Z</time>
      </trkpt>
      <trkpt lat="48.64179" lon="7.30336">
        <ele>485.6</ele>
        <time>2012-06-09T13:25:31Z</time>
      </trkpt>
      <trkpt lat="48.64179" lon="7.30336">
        <ele>485.6</ele>
        <time>2012-06-09T13:26:02Z</time>
      </trkpt>
      <trkpt lat="48.64178" lon="7.30336">
        <ele>485.12</ele>
        <time>2012-06-09T13:26:26Z</time>
      </trkpt>
      <trkpt lat="48.64179" lon="7.30338">
        <ele>484.16</ele>
        <time>2012-06-09T13:26:37Z</time>
      </trkpt>
      <trkpt lat="48.64179" lon="7.3034">
        <ele>484.16</ele>
        <time>2012-06-09T13:26:41Z</time>
      </trkpt>
      <trkpt lat="48.64182" lon="7.30353">
        <ele>484.64</ele>
        <time>2012-06-09T13:26:45Z</time>
      </trkpt>
      <trkpt lat="48.64189" lon="7.30398">
        <ele>484.64</ele>
        <time>2012-06-09T13:26:51Z</time>
      </trkpt>
      <trkpt lat="48.64191" lon="7.30416">
        <ele>484.64</ele>
        <time>2012-06-09T13:26:53Z</time>
      </trkpt>
      <trkpt lat="48.64166" lon="7.30547">
        <ele>480.8</ele>
        <time>2012-06-09T13:27:05Z</time>
      </trkpt>
      <trkpt lat="48.64164" lon="7.30555">
        <ele>480.32</ele>
        <time>2012-06-09T13:27:06Z</time>
      </trkpt>
      <trkpt lat="48.64166" lon="7.30574">
        <ele>479.84</ele>
        <time>2012-06-09T13:27:10Z</time>
      </trkpt>
      <trkpt lat="48.6419" lon="7.30575">
        <ele>477.91</ele>
        <time>2012-06-09T13:27:16Z</time>
      </trkpt>
      <trkpt lat="48.64213" lon="7.30581">
        <ele>475.51</ele>
        <time>2012-06-09T13:27:26Z</time>
      </trkpt>
      <trkpt lat="48.64214" lon="7.30581">
        <ele>475.51</ele>
        <time>2012-06-09T13:27:30Z</time>
      </trkpt>
      <trkpt lat="48.64214" lon="7.30584">
        <ele>474.55</ele>
        <time>2012-06-09T13:27:41Z</time>
      </trkpt>
      <trkpt lat="48.64214" lon="7.30584">
        <ele>474.55</ele>
        <time>2012-06-09T13:28:01Z</time>
      </trkpt>
    </trkseg>
  </trk>
</gpx>